<?xml version="1.0" encoding="UTF-8" standalone="no" ?>
<gpx xmlns="http://www.topografix.com/GPX/1/1" xmlns:xsi="http://www.w3.org/2001/XMLSchema-instance" xsi:schemaLocation="http://www.topografix.com/GPX/1/1 http://www.topografix.com/GPX/1/1/gpx.xsd" version="1.1" creator="VisuGPX - https://www.visugpx.com">
  <metadata>
    <name>Houlgate vers Villers sur mer (falaise)</name>
    <desc><![CDATA[lorsque la marée est basse, on peut faire ce trajet par la plage]]></desc>
  </metadata>
  <trk>
    <name><![CDATA[Houlgate vers Villers sur mer (falaise)_1]]></name>
    <trkseg>
      <trkpt lat="49.30176" lon="-0.07766">
        <ele>11</ele>
        <time>2018-04-17T08:25:42Z</time>
      </trkpt>
      <trkpt lat="49.30176" lon="-0.07766">
        <ele>11</ele>
        <time>2018-04-17T08:25:42Z</time>
      </trkpt>
      <trkpt lat="49.3018" lon="-0.07757">
        <ele>11</ele>
        <time>2018-04-17T08:25:49Z</time>
      </trkpt>
      <trkpt lat="49.30182" lon="-0.07755">
        <ele>11</ele>
        <time>2018-04-17T08:25:56Z</time>
      </trkpt>
      <trkpt lat="49.30185" lon="-0.07753">
        <ele>11</ele>
        <time>2018-04-17T08:26:03Z</time>
      </trkpt>
      <trkpt lat="49.3019" lon="-0.07749">
        <ele>12</ele>
        <time>2018-04-17T08:26:10Z</time>
      </trkpt>
      <trkpt lat="49.30187" lon="-0.07743">
        <ele>12</ele>
        <time>2018-04-17T08:26:17Z</time>
      </trkpt>
      <trkpt lat="49.30185" lon="-0.07734">
        <ele>12</ele>
        <time>2018-04-17T08:26:24Z</time>
      </trkpt>
      <trkpt lat="49.30179" lon="-0.07724">
        <ele>13</ele>
        <time>2018-04-17T08:26:30Z</time>
      </trkpt>
      <trkpt lat="49.30175" lon="-0.07716">
        <ele>13</ele>
        <time>2018-04-17T08:26:36Z</time>
      </trkpt>
      <trkpt lat="49.30169" lon="-0.0771">
        <ele>13</ele>
        <time>2018-04-17T08:26:40Z</time>
      </trkpt>
      <trkpt lat="49.30165" lon="-0.07702">
        <ele>12</ele>
        <time>2018-04-17T08:26:47Z</time>
      </trkpt>
      <trkpt lat="49.30161" lon="-0.07689">
        <ele>12</ele>
        <time>2018-04-17T08:26:53Z</time>
      </trkpt>
      <trkpt lat="49.30163" lon="-0.07682">
        <ele>13</ele>
        <time>2018-04-17T08:27:00Z</time>
      </trkpt>
      <trkpt lat="49.30169" lon="-0.07679">
        <ele>13</ele>
        <time>2018-04-17T08:27:07Z</time>
      </trkpt>
      <trkpt lat="49.30174" lon="-0.07674">
        <ele>13</ele>
        <time>2018-04-17T08:27:14Z</time>
      </trkpt>
      <trkpt lat="49.30178" lon="-0.07665">
        <ele>13</ele>
        <time>2018-04-17T08:27:21Z</time>
      </trkpt>
      <trkpt lat="49.30184" lon="-0.07656">
        <ele>14</ele>
        <time>2018-04-17T08:27:26Z</time>
      </trkpt>
      <trkpt lat="49.30191" lon="-0.07648">
        <ele>14</ele>
        <time>2018-04-17T08:27:33Z</time>
      </trkpt>
      <trkpt lat="49.30197" lon="-0.07645">
        <ele>14</ele>
        <time>2018-04-17T08:27:40Z</time>
      </trkpt>
      <trkpt lat="49.30199" lon="-0.07638">
        <ele>14</ele>
        <time>2018-04-17T08:27:47Z</time>
      </trkpt>
      <trkpt lat="49.30205" lon="-0.07632">
        <ele>14</ele>
        <time>2018-04-17T08:27:54Z</time>
      </trkpt>
      <trkpt lat="49.30212" lon="-0.07625">
        <ele>14</ele>
        <time>2018-04-17T08:28:00Z</time>
      </trkpt>
      <trkpt lat="49.30216" lon="-0.07616">
        <ele>14</ele>
        <time>2018-04-17T08:28:07Z</time>
      </trkpt>
      <trkpt lat="49.30225" lon="-0.07611">
        <ele>14</ele>
        <time>2018-04-17T08:28:14Z</time>
      </trkpt>
      <trkpt lat="49.3023" lon="-0.07602">
        <ele>14</ele>
        <time>2018-04-17T08:28:20Z</time>
      </trkpt>
      <trkpt lat="49.30237" lon="-0.07598">
        <ele>14</ele>
        <time>2018-04-17T08:28:27Z</time>
      </trkpt>
      <trkpt lat="49.30242" lon="-0.07588">
        <ele>14</ele>
        <time>2018-04-17T08:28:34Z</time>
      </trkpt>
      <trkpt lat="49.30246" lon="-0.07578">
        <ele>14</ele>
        <time>2018-04-17T08:28:41Z</time>
      </trkpt>
      <trkpt lat="49.3025" lon="-0.07573">
        <ele>14</ele>
        <time>2018-04-17T08:28:48Z</time>
      </trkpt>
      <trkpt lat="49.30252" lon="-0.07572">
        <ele>15</ele>
        <time>2018-04-17T08:28:55Z</time>
      </trkpt>
      <trkpt lat="49.3026" lon="-0.07567">
        <ele>15</ele>
        <time>2018-04-17T08:29:00Z</time>
      </trkpt>
      <trkpt lat="49.30266" lon="-0.07564">
        <ele>15</ele>
        <time>2018-04-17T08:29:07Z</time>
      </trkpt>
      <trkpt lat="49.30273" lon="-0.07557">
        <ele>15</ele>
        <time>2018-04-17T08:29:13Z</time>
      </trkpt>
      <trkpt lat="49.30281" lon="-0.07551">
        <ele>15</ele>
        <time>2018-04-17T08:29:18Z</time>
      </trkpt>
      <trkpt lat="49.30285" lon="-0.07545">
        <ele>15</ele>
        <time>2018-04-17T08:29:25Z</time>
      </trkpt>
      <trkpt lat="49.30292" lon="-0.07536">
        <ele>16</ele>
        <time>2018-04-17T08:29:31Z</time>
      </trkpt>
      <trkpt lat="49.30299" lon="-0.07539">
        <ele>16</ele>
        <time>2018-04-17T08:29:38Z</time>
      </trkpt>
      <trkpt lat="49.30305" lon="-0.07545">
        <ele>15</ele>
        <time>2018-04-17T08:29:45Z</time>
      </trkpt>
      <trkpt lat="49.30311" lon="-0.07552">
        <ele>15</ele>
        <time>2018-04-17T08:29:51Z</time>
      </trkpt>
      <trkpt lat="49.30315" lon="-0.07558">
        <ele>15</ele>
        <time>2018-04-17T08:29:58Z</time>
      </trkpt>
      <trkpt lat="49.30323" lon="-0.07561">
        <ele>15</ele>
        <time>2018-04-17T08:30:03Z</time>
      </trkpt>
      <trkpt lat="49.3033" lon="-0.07564">
        <ele>15</ele>
        <time>2018-04-17T08:30:10Z</time>
      </trkpt>
      <trkpt lat="49.30337" lon="-0.0757">
        <ele>14</ele>
        <time>2018-04-17T08:30:17Z</time>
      </trkpt>
      <trkpt lat="49.30345" lon="-0.07573">
        <ele>14</ele>
        <time>2018-04-17T08:30:22Z</time>
      </trkpt>
      <trkpt lat="49.3035" lon="-0.07576">
        <ele>14</ele>
        <time>2018-04-17T08:30:29Z</time>
      </trkpt>
      <trkpt lat="49.30358" lon="-0.07584">
        <ele>13</ele>
        <time>2018-04-17T08:30:34Z</time>
      </trkpt>
      <trkpt lat="49.30364" lon="-0.07589">
        <ele>12</ele>
        <time>2018-04-17T08:30:41Z</time>
      </trkpt>
      <trkpt lat="49.3037" lon="-0.07599">
        <ele>12</ele>
        <time>2018-04-17T08:30:48Z</time>
      </trkpt>
      <trkpt lat="49.30377" lon="-0.07603">
        <ele>12</ele>
        <time>2018-04-17T08:30:55Z</time>
      </trkpt>
      <trkpt lat="49.30383" lon="-0.07596">
        <ele>12</ele>
        <time>2018-04-17T08:31:02Z</time>
      </trkpt>
      <trkpt lat="49.30386" lon="-0.07588">
        <ele>12</ele>
        <time>2018-04-17T08:31:09Z</time>
      </trkpt>
      <trkpt lat="49.30393" lon="-0.07583">
        <ele>13</ele>
        <time>2018-04-17T08:31:16Z</time>
      </trkpt>
      <trkpt lat="49.30391" lon="-0.07571">
        <ele>14</ele>
        <time>2018-04-17T08:31:21Z</time>
      </trkpt>
      <trkpt lat="49.30387" lon="-0.0756">
        <ele>14</ele>
        <time>2018-04-17T08:31:25Z</time>
      </trkpt>
      <trkpt lat="49.30382" lon="-0.07549">
        <ele>14</ele>
        <time>2018-04-17T08:31:29Z</time>
      </trkpt>
      <trkpt lat="49.30387" lon="-0.07539">
        <ele>14</ele>
        <time>2018-04-17T08:31:34Z</time>
      </trkpt>
      <trkpt lat="49.30393" lon="-0.0753">
        <ele>14</ele>
        <time>2018-04-17T08:31:41Z</time>
      </trkpt>
      <trkpt lat="49.30402" lon="-0.07527">
        <ele>14</ele>
        <time>2018-04-17T08:31:45Z</time>
      </trkpt>
      <trkpt lat="49.30408" lon="-0.07523">
        <ele>14</ele>
        <time>2018-04-17T08:31:52Z</time>
      </trkpt>
      <trkpt lat="49.30412" lon="-0.07513">
        <ele>14</ele>
        <time>2018-04-17T08:31:58Z</time>
      </trkpt>
      <trkpt lat="49.30419" lon="-0.07509">
        <ele>13</ele>
        <time>2018-04-17T08:32:02Z</time>
      </trkpt>
      <trkpt lat="49.30422" lon="-0.075">
        <ele>14</ele>
        <time>2018-04-17T08:32:08Z</time>
      </trkpt>
      <trkpt lat="49.30425" lon="-0.07488">
        <ele>13</ele>
        <time>2018-04-17T08:32:15Z</time>
      </trkpt>
      <trkpt lat="49.30425" lon="-0.07476">
        <ele>13</ele>
        <time>2018-04-17T08:32:21Z</time>
      </trkpt>
      <trkpt lat="49.30429" lon="-0.07467">
        <ele>13</ele>
        <time>2018-04-17T08:32:28Z</time>
      </trkpt>
      <trkpt lat="49.30431" lon="-0.07458">
        <ele>13</ele>
        <time>2018-04-17T08:32:35Z</time>
      </trkpt>
      <trkpt lat="49.30436" lon="-0.07448">
        <ele>13</ele>
        <time>2018-04-17T08:32:42Z</time>
      </trkpt>
      <trkpt lat="49.30438" lon="-0.0744">
        <ele>13</ele>
        <time>2018-04-17T08:32:49Z</time>
      </trkpt>
      <trkpt lat="49.30442" lon="-0.07431">
        <ele>13</ele>
        <time>2018-04-17T08:32:56Z</time>
      </trkpt>
      <trkpt lat="49.30445" lon="-0.07421">
        <ele>13</ele>
        <time>2018-04-17T08:33:02Z</time>
      </trkpt>
      <trkpt lat="49.30445" lon="-0.0741">
        <ele>14</ele>
        <time>2018-04-17T08:33:09Z</time>
      </trkpt>
      <trkpt lat="49.30449" lon="-0.07398">
        <ele>14</ele>
        <time>2018-04-17T08:33:16Z</time>
      </trkpt>
      <trkpt lat="49.30453" lon="-0.07389">
        <ele>14</ele>
        <time>2018-04-17T08:33:22Z</time>
      </trkpt>
      <trkpt lat="49.30457" lon="-0.07377">
        <ele>14</ele>
        <time>2018-04-17T08:33:29Z</time>
      </trkpt>
      <trkpt lat="49.3046" lon="-0.07367">
        <ele>14</ele>
        <time>2018-04-17T08:33:36Z</time>
      </trkpt>
      <trkpt lat="49.30463" lon="-0.07363">
        <ele>13</ele>
        <time>2018-04-17T08:33:43Z</time>
      </trkpt>
      <trkpt lat="49.30467" lon="-0.07355">
        <ele>13</ele>
        <time>2018-04-17T08:33:48Z</time>
      </trkpt>
      <trkpt lat="49.30469" lon="-0.07343">
        <ele>13</ele>
        <time>2018-04-17T08:33:55Z</time>
      </trkpt>
      <trkpt lat="49.30474" lon="-0.07334">
        <ele>13</ele>
        <time>2018-04-17T08:34:01Z</time>
      </trkpt>
      <trkpt lat="49.30478" lon="-0.07324">
        <ele>15</ele>
        <time>2018-04-17T08:34:07Z</time>
      </trkpt>
      <trkpt lat="49.30484" lon="-0.07318">
        <ele>15</ele>
        <time>2018-04-17T08:34:14Z</time>
      </trkpt>
      <trkpt lat="49.30485" lon="-0.07308">
        <ele>15</ele>
        <time>2018-04-17T08:34:21Z</time>
      </trkpt>
      <trkpt lat="49.30488" lon="-0.07301">
        <ele>16</ele>
        <time>2018-04-17T08:34:28Z</time>
      </trkpt>
      <trkpt lat="49.30492" lon="-0.07294">
        <ele>16</ele>
        <time>2018-04-17T08:34:35Z</time>
      </trkpt>
      <trkpt lat="49.30493" lon="-0.07284">
        <ele>17</ele>
        <time>2018-04-17T08:34:42Z</time>
      </trkpt>
      <trkpt lat="49.30495" lon="-0.07273">
        <ele>17</ele>
        <time>2018-04-17T08:34:49Z</time>
      </trkpt>
      <trkpt lat="49.30497" lon="-0.07269">
        <ele>17</ele>
        <time>2018-04-17T08:34:56Z</time>
      </trkpt>
      <trkpt lat="49.305" lon="-0.07259">
        <ele>18</ele>
        <time>2018-04-17T08:35:02Z</time>
      </trkpt>
      <trkpt lat="49.30502" lon="-0.07248">
        <ele>18</ele>
        <time>2018-04-17T08:35:09Z</time>
      </trkpt>
      <trkpt lat="49.30504" lon="-0.07238">
        <ele>17</ele>
        <time>2018-04-17T08:35:16Z</time>
      </trkpt>
      <trkpt lat="49.30506" lon="-0.07236">
        <ele>17</ele>
        <time>2018-04-17T08:35:23Z</time>
      </trkpt>
      <trkpt lat="49.3051" lon="-0.07234">
        <ele>17</ele>
        <time>2018-04-17T08:35:30Z</time>
      </trkpt>
      <trkpt lat="49.30512" lon="-0.07226">
        <ele>16</ele>
        <time>2018-04-17T08:35:37Z</time>
      </trkpt>
      <trkpt lat="49.30515" lon="-0.07218">
        <ele>16</ele>
        <time>2018-04-17T08:35:44Z</time>
      </trkpt>
      <trkpt lat="49.30516" lon="-0.07215">
        <ele>16</ele>
        <time>2018-04-17T08:35:51Z</time>
      </trkpt>
      <trkpt lat="49.30518" lon="-0.07205">
        <ele>17</ele>
        <time>2018-04-17T08:35:58Z</time>
      </trkpt>
      <trkpt lat="49.30519" lon="-0.07203">
        <ele>17</ele>
        <time>2018-04-17T08:36:05Z</time>
      </trkpt>
      <trkpt lat="49.30522" lon="-0.07197">
        <ele>17</ele>
        <time>2018-04-17T08:36:12Z</time>
      </trkpt>
      <trkpt lat="49.30524" lon="-0.0719">
        <ele>18</ele>
        <time>2018-04-17T08:36:19Z</time>
      </trkpt>
      <trkpt lat="49.30525" lon="-0.07181">
        <ele>18</ele>
        <time>2018-04-17T08:36:26Z</time>
      </trkpt>
      <trkpt lat="49.30526" lon="-0.07172">
        <ele>18</ele>
        <time>2018-04-17T08:36:33Z</time>
      </trkpt>
      <trkpt lat="49.30526" lon="-0.07166">
        <ele>23</ele>
        <time>2018-04-17T08:36:40Z</time>
      </trkpt>
      <trkpt lat="49.30524" lon="-0.07159">
        <ele>23</ele>
        <time>2018-04-17T08:36:47Z</time>
      </trkpt>
      <trkpt lat="49.30526" lon="-0.07158">
        <ele>23</ele>
        <time>2018-04-17T08:36:54Z</time>
      </trkpt>
      <trkpt lat="49.30526" lon="-0.07153">
        <ele>23</ele>
        <time>2018-04-17T08:37:01Z</time>
      </trkpt>
      <trkpt lat="49.30527" lon="-0.07144">
        <ele>23</ele>
        <time>2018-04-17T08:37:08Z</time>
      </trkpt>
      <trkpt lat="49.30523" lon="-0.07138">
        <ele>23</ele>
        <time>2018-04-17T08:37:15Z</time>
      </trkpt>
      <trkpt lat="49.30523" lon="-0.07129">
        <ele>24</ele>
        <time>2018-04-17T08:37:22Z</time>
      </trkpt>
      <trkpt lat="49.30525" lon="-0.07125">
        <ele>24</ele>
        <time>2018-04-17T08:37:29Z</time>
      </trkpt>
      <trkpt lat="49.30526" lon="-0.07125">
        <ele>24</ele>
        <time>2018-04-17T08:37:36Z</time>
      </trkpt>
      <trkpt lat="49.30524" lon="-0.0712">
        <ele>24</ele>
        <time>2018-04-17T08:37:44Z</time>
      </trkpt>
      <trkpt lat="49.30524" lon="-0.0712">
        <ele>24</ele>
        <time>2018-04-17T08:37:47Z</time>
      </trkpt>
      <trkpt lat="49.30526" lon="-0.07109">
        <ele>25</ele>
        <time>2018-04-17T08:38:15Z</time>
      </trkpt>
      <trkpt lat="49.30527" lon="-0.07104">
        <ele>25</ele>
        <time>2018-04-17T08:38:22Z</time>
      </trkpt>
      <trkpt lat="49.30525" lon="-0.07097">
        <ele>26</ele>
        <time>2018-04-17T08:38:29Z</time>
      </trkpt>
      <trkpt lat="49.30524" lon="-0.07091">
        <ele>27</ele>
        <time>2018-04-17T08:38:36Z</time>
      </trkpt>
      <trkpt lat="49.30524" lon="-0.07085">
        <ele>27</ele>
        <time>2018-04-17T08:38:43Z</time>
      </trkpt>
      <trkpt lat="49.30523" lon="-0.07079">
        <ele>32</ele>
        <time>2018-04-17T08:38:50Z</time>
      </trkpt>
      <trkpt lat="49.30525" lon="-0.07077">
        <ele>32</ele>
        <time>2018-04-17T08:38:57Z</time>
      </trkpt>
      <trkpt lat="49.30524" lon="-0.0707">
        <ele>32</ele>
        <time>2018-04-17T08:39:04Z</time>
      </trkpt>
      <trkpt lat="49.30526" lon="-0.07065">
        <ele>31</ele>
        <time>2018-04-17T08:39:11Z</time>
      </trkpt>
      <trkpt lat="49.30526" lon="-0.07059">
        <ele>31</ele>
        <time>2018-04-17T08:39:18Z</time>
      </trkpt>
      <trkpt lat="49.30526" lon="-0.07058">
        <ele>32</ele>
        <time>2018-04-17T08:39:25Z</time>
      </trkpt>
      <trkpt lat="49.30526" lon="-0.07058">
        <ele>32</ele>
        <time>2018-04-17T08:39:26Z</time>
      </trkpt>
      <trkpt lat="49.30526" lon="-0.07055">
        <ele>32</ele>
        <time>2018-04-17T08:39:36Z</time>
      </trkpt>
      <trkpt lat="49.30527" lon="-0.07044">
        <ele>32</ele>
        <time>2018-04-17T08:39:43Z</time>
      </trkpt>
      <trkpt lat="49.30529" lon="-0.07038">
        <ele>32</ele>
        <time>2018-04-17T08:39:50Z</time>
      </trkpt>
      <trkpt lat="49.30528" lon="-0.07031">
        <ele>33</ele>
        <time>2018-04-17T08:39:57Z</time>
      </trkpt>
      <trkpt lat="49.30532" lon="-0.07024">
        <ele>32</ele>
        <time>2018-04-17T08:40:04Z</time>
      </trkpt>
      <trkpt lat="49.30532" lon="-0.07016">
        <ele>33</ele>
        <time>2018-04-17T08:40:11Z</time>
      </trkpt>
      <trkpt lat="49.3053" lon="-0.07009">
        <ele>34</ele>
        <time>2018-04-17T08:40:18Z</time>
      </trkpt>
      <trkpt lat="49.30528" lon="-0.07001">
        <ele>34</ele>
        <time>2018-04-17T08:40:25Z</time>
      </trkpt>
      <trkpt lat="49.30528" lon="-0.06993">
        <ele>39</ele>
        <time>2018-04-17T08:40:32Z</time>
      </trkpt>
      <trkpt lat="49.30523" lon="-0.06989">
        <ele>40</ele>
        <time>2018-04-17T08:40:39Z</time>
      </trkpt>
      <trkpt lat="49.30521" lon="-0.06986">
        <ele>40</ele>
        <time>2018-04-17T08:40:46Z</time>
      </trkpt>
      <trkpt lat="49.30519" lon="-0.06979">
        <ele>41</ele>
        <time>2018-04-17T08:40:53Z</time>
      </trkpt>
      <trkpt lat="49.30519" lon="-0.06972">
        <ele>41</ele>
        <time>2018-04-17T08:41:00Z</time>
      </trkpt>
      <trkpt lat="49.30519" lon="-0.06969">
        <ele>41</ele>
        <time>2018-04-17T08:41:06Z</time>
      </trkpt>
      <trkpt lat="49.3052" lon="-0.06968">
        <ele>41</ele>
        <time>2018-04-17T08:41:14Z</time>
      </trkpt>
      <trkpt lat="49.3052" lon="-0.06968">
        <ele>41</ele>
        <time>2018-04-17T08:41:15Z</time>
      </trkpt>
      <trkpt lat="49.3052" lon="-0.06966">
        <ele>41</ele>
        <time>2018-04-17T08:41:33Z</time>
      </trkpt>
      <trkpt lat="49.30521" lon="-0.06966">
        <ele>41</ele>
        <time>2018-04-17T08:41:34Z</time>
      </trkpt>
      <trkpt lat="49.30519" lon="-0.06962">
        <ele>41</ele>
        <time>2018-04-17T08:41:42Z</time>
      </trkpt>
      <trkpt lat="49.30514" lon="-0.06954">
        <ele>42</ele>
        <time>2018-04-17T08:41:49Z</time>
      </trkpt>
      <trkpt lat="49.30515" lon="-0.06947">
        <ele>43</ele>
        <time>2018-04-17T08:41:56Z</time>
      </trkpt>
      <trkpt lat="49.30513" lon="-0.0694">
        <ele>44</ele>
        <time>2018-04-17T08:42:03Z</time>
      </trkpt>
      <trkpt lat="49.30514" lon="-0.06936">
        <ele>45</ele>
        <time>2018-04-17T08:42:10Z</time>
      </trkpt>
      <trkpt lat="49.30512" lon="-0.06929">
        <ele>47</ele>
        <time>2018-04-17T08:42:17Z</time>
      </trkpt>
      <trkpt lat="49.3051" lon="-0.06921">
        <ele>49</ele>
        <time>2018-04-17T08:42:24Z</time>
      </trkpt>
      <trkpt lat="49.3051" lon="-0.06918">
        <ele>50</ele>
        <time>2018-04-17T08:42:31Z</time>
      </trkpt>
      <trkpt lat="49.30508" lon="-0.06911">
        <ele>52</ele>
        <time>2018-04-17T08:42:38Z</time>
      </trkpt>
      <trkpt lat="49.30506" lon="-0.06907">
        <ele>52</ele>
        <time>2018-04-17T08:42:45Z</time>
      </trkpt>
      <trkpt lat="49.30506" lon="-0.06898">
        <ele>51</ele>
        <time>2018-04-17T08:42:52Z</time>
      </trkpt>
      <trkpt lat="49.30506" lon="-0.06891">
        <ele>51</ele>
        <time>2018-04-17T08:42:59Z</time>
      </trkpt>
      <trkpt lat="49.30505" lon="-0.06887">
        <ele>51</ele>
        <time>2018-04-17T08:43:06Z</time>
      </trkpt>
      <trkpt lat="49.30505" lon="-0.06885">
        <ele>51</ele>
        <time>2018-04-17T08:43:13Z</time>
      </trkpt>
      <trkpt lat="49.30502" lon="-0.0688">
        <ele>51</ele>
        <time>2018-04-17T08:43:20Z</time>
      </trkpt>
      <trkpt lat="49.30501" lon="-0.06877">
        <ele>51</ele>
        <time>2018-04-17T08:43:27Z</time>
      </trkpt>
      <trkpt lat="49.30501" lon="-0.06873">
        <ele>52</ele>
        <time>2018-04-17T08:43:34Z</time>
      </trkpt>
      <trkpt lat="49.30499" lon="-0.06871">
        <ele>62</ele>
        <time>2018-04-17T08:43:41Z</time>
      </trkpt>
      <trkpt lat="49.30496" lon="-0.06867">
        <ele>62</ele>
        <time>2018-04-17T08:43:48Z</time>
      </trkpt>
      <trkpt lat="49.30492" lon="-0.06862">
        <ele>63</ele>
        <time>2018-04-17T08:43:55Z</time>
      </trkpt>
      <trkpt lat="49.3049" lon="-0.06861">
        <ele>63</ele>
        <time>2018-04-17T08:44:02Z</time>
      </trkpt>
      <trkpt lat="49.30487" lon="-0.0686">
        <ele>63</ele>
        <time>2018-04-17T08:44:09Z</time>
      </trkpt>
      <trkpt lat="49.30489" lon="-0.06853">
        <ele>63</ele>
        <time>2018-04-17T08:44:16Z</time>
      </trkpt>
      <trkpt lat="49.30488" lon="-0.06849">
        <ele>63</ele>
        <time>2018-04-17T08:44:23Z</time>
      </trkpt>
      <trkpt lat="49.30488" lon="-0.06848">
        <ele>63</ele>
        <time>2018-04-17T08:44:30Z</time>
      </trkpt>
      <trkpt lat="49.30488" lon="-0.06848">
        <ele>63</ele>
        <time>2018-04-17T08:44:31Z</time>
      </trkpt>
      <trkpt lat="49.30483" lon="-0.06847">
        <ele>63</ele>
        <time>2018-04-17T08:44:42Z</time>
      </trkpt>
      <trkpt lat="49.30479" lon="-0.06848">
        <ele>64</ele>
        <time>2018-04-17T08:44:49Z</time>
      </trkpt>
      <trkpt lat="49.3048" lon="-0.06847">
        <ele>64</ele>
        <time>2018-04-17T08:44:53Z</time>
      </trkpt>
      <trkpt lat="49.3048" lon="-0.06847">
        <ele>64</ele>
        <time>2018-04-17T08:45:04Z</time>
      </trkpt>
      <trkpt lat="49.3048" lon="-0.06847">
        <ele>64</ele>
        <time>2018-04-17T08:45:05Z</time>
      </trkpt>
      <trkpt lat="49.30485" lon="-0.06841">
        <ele>63</ele>
        <time>2018-04-17T08:45:55Z</time>
      </trkpt>
      <trkpt lat="49.30488" lon="-0.06832">
        <ele>68</ele>
        <time>2018-04-17T08:46:02Z</time>
      </trkpt>
      <trkpt lat="49.30486" lon="-0.06821">
        <ele>70</ele>
        <time>2018-04-17T08:46:09Z</time>
      </trkpt>
      <trkpt lat="49.30487" lon="-0.06811">
        <ele>71</ele>
        <time>2018-04-17T08:46:16Z</time>
      </trkpt>
      <trkpt lat="49.30488" lon="-0.06801">
        <ele>72</ele>
        <time>2018-04-17T08:46:23Z</time>
      </trkpt>
      <trkpt lat="49.30489" lon="-0.06794">
        <ele>73</ele>
        <time>2018-04-17T08:46:30Z</time>
      </trkpt>
      <trkpt lat="49.30488" lon="-0.06787">
        <ele>74</ele>
        <time>2018-04-17T08:46:37Z</time>
      </trkpt>
      <trkpt lat="49.30486" lon="-0.06785">
        <ele>74</ele>
        <time>2018-04-17T08:46:44Z</time>
      </trkpt>
      <trkpt lat="49.30486" lon="-0.06777">
        <ele>75</ele>
        <time>2018-04-17T08:46:51Z</time>
      </trkpt>
      <trkpt lat="49.30487" lon="-0.06773">
        <ele>75</ele>
        <time>2018-04-17T08:46:58Z</time>
      </trkpt>
      <trkpt lat="49.30489" lon="-0.0677">
        <ele>75</ele>
        <time>2018-04-17T08:47:05Z</time>
      </trkpt>
      <trkpt lat="49.30489" lon="-0.0677">
        <ele>75</ele>
        <time>2018-04-17T08:47:07Z</time>
      </trkpt>
      <trkpt lat="49.30489" lon="-0.0677">
        <ele>75</ele>
        <time>2018-04-17T08:47:18Z</time>
      </trkpt>
      <trkpt lat="49.30489" lon="-0.0677">
        <ele>75</ele>
        <time>2018-04-17T08:47:20Z</time>
      </trkpt>
      <trkpt lat="49.30488" lon="-0.06769">
        <ele>75</ele>
        <time>2018-04-17T08:47:31Z</time>
      </trkpt>
      <trkpt lat="49.30488" lon="-0.06769">
        <ele>75</ele>
        <time>2018-04-17T08:47:32Z</time>
      </trkpt>
      <trkpt lat="49.30488" lon="-0.0677">
        <ele>75</ele>
        <time>2018-04-17T08:49:46Z</time>
      </trkpt>
      <trkpt lat="49.30488" lon="-0.0677">
        <ele>75</ele>
        <time>2018-04-17T08:49:47Z</time>
      </trkpt>
      <trkpt lat="49.30488" lon="-0.0677">
        <ele>75</ele>
        <time>2018-04-17T08:49:56Z</time>
      </trkpt>
      <trkpt lat="49.30488" lon="-0.0677">
        <ele>75</ele>
        <time>2018-04-17T08:49:57Z</time>
      </trkpt>
      <trkpt lat="49.30485" lon="-0.06774">
        <ele>75</ele>
        <time>2018-04-17T08:52:20Z</time>
      </trkpt>
      <trkpt lat="49.30485" lon="-0.06773">
        <ele>75</ele>
        <time>2018-04-17T08:52:24Z</time>
      </trkpt>
      <trkpt lat="49.30485" lon="-0.06768">
        <ele>75</ele>
        <time>2018-04-17T08:52:33Z</time>
      </trkpt>
      <trkpt lat="49.30485" lon="-0.06768">
        <ele>75</ele>
        <time>2018-04-17T08:52:36Z</time>
      </trkpt>
      <trkpt lat="49.30487" lon="-0.0677">
        <ele>75</ele>
        <time>2018-04-17T08:53:38Z</time>
      </trkpt>
      <trkpt lat="49.30489" lon="-0.06772">
        <ele>75</ele>
        <time>2018-04-17T08:53:45Z</time>
      </trkpt>
      <trkpt lat="49.30489" lon="-0.06772">
        <ele>75</ele>
        <time>2018-04-17T08:53:47Z</time>
      </trkpt>
      <trkpt lat="49.30485" lon="-0.0677">
        <ele>75</ele>
        <time>2018-04-17T08:56:11Z</time>
      </trkpt>
      <trkpt lat="49.30484" lon="-0.06767">
        <ele>75</ele>
        <time>2018-04-17T08:56:18Z</time>
      </trkpt>
      <trkpt lat="49.30483" lon="-0.06766">
        <ele>75</ele>
        <time>2018-04-17T08:56:21Z</time>
      </trkpt>
      <trkpt lat="49.30481" lon="-0.06762">
        <ele>76</ele>
        <time>2018-04-17T08:58:11Z</time>
      </trkpt>
      <trkpt lat="49.30484" lon="-0.06759">
        <ele>76</ele>
        <time>2018-04-17T08:58:18Z</time>
      </trkpt>
      <trkpt lat="49.30484" lon="-0.06755">
        <ele>76</ele>
        <time>2018-04-17T08:58:25Z</time>
      </trkpt>
      <trkpt lat="49.30487" lon="-0.0675">
        <ele>81</ele>
        <time>2018-04-17T08:58:32Z</time>
      </trkpt>
      <trkpt lat="49.30489" lon="-0.06742">
        <ele>81</ele>
        <time>2018-04-17T08:58:39Z</time>
      </trkpt>
      <trkpt lat="49.30488" lon="-0.06736">
        <ele>82</ele>
        <time>2018-04-17T08:58:46Z</time>
      </trkpt>
      <trkpt lat="49.30484" lon="-0.06732">
        <ele>83</ele>
        <time>2018-04-17T08:58:53Z</time>
      </trkpt>
      <trkpt lat="49.30484" lon="-0.06725">
        <ele>85</ele>
        <time>2018-04-17T08:59:00Z</time>
      </trkpt>
      <trkpt lat="49.30481" lon="-0.06719">
        <ele>85</ele>
        <time>2018-04-17T08:59:07Z</time>
      </trkpt>
      <trkpt lat="49.30481" lon="-0.06715">
        <ele>86</ele>
        <time>2018-04-17T08:59:14Z</time>
      </trkpt>
      <trkpt lat="49.30484" lon="-0.06708">
        <ele>86</ele>
        <time>2018-04-17T08:59:21Z</time>
      </trkpt>
      <trkpt lat="49.30487" lon="-0.06697">
        <ele>87</ele>
        <time>2018-04-17T08:59:28Z</time>
      </trkpt>
      <trkpt lat="49.30486" lon="-0.06688">
        <ele>87</ele>
        <time>2018-04-17T08:59:35Z</time>
      </trkpt>
      <trkpt lat="49.30481" lon="-0.06679">
        <ele>87</ele>
        <time>2018-04-17T08:59:39Z</time>
      </trkpt>
      <trkpt lat="49.30475" lon="-0.06674">
        <ele>88</ele>
        <time>2018-04-17T08:59:46Z</time>
      </trkpt>
      <trkpt lat="49.30473" lon="-0.06669">
        <ele>89</ele>
        <time>2018-04-17T08:59:53Z</time>
      </trkpt>
      <trkpt lat="49.30474" lon="-0.06673">
        <ele>88</ele>
        <time>2018-04-17T09:00:00Z</time>
      </trkpt>
      <trkpt lat="49.30475" lon="-0.06671">
        <ele>88</ele>
        <time>2018-04-17T09:00:07Z</time>
      </trkpt>
      <trkpt lat="49.30477" lon="-0.06676">
        <ele>88</ele>
        <time>2018-04-17T09:00:14Z</time>
      </trkpt>
      <trkpt lat="49.30476" lon="-0.06674">
        <ele>88</ele>
        <time>2018-04-17T09:00:21Z</time>
      </trkpt>
      <trkpt lat="49.30477" lon="-0.06664">
        <ele>94</ele>
        <time>2018-04-17T09:00:28Z</time>
      </trkpt>
      <trkpt lat="49.30479" lon="-0.06658">
        <ele>94</ele>
        <time>2018-04-17T09:00:35Z</time>
      </trkpt>
      <trkpt lat="49.30477" lon="-0.06647">
        <ele>96</ele>
        <time>2018-04-17T09:00:41Z</time>
      </trkpt>
      <trkpt lat="49.30474" lon="-0.0664">
        <ele>97</ele>
        <time>2018-04-17T09:00:48Z</time>
      </trkpt>
      <trkpt lat="49.30471" lon="-0.06628">
        <ele>98</ele>
        <time>2018-04-17T09:00:55Z</time>
      </trkpt>
      <trkpt lat="49.30469" lon="-0.06619">
        <ele>99</ele>
        <time>2018-04-17T09:01:02Z</time>
      </trkpt>
      <trkpt lat="49.30467" lon="-0.06618">
        <ele>100</ele>
        <time>2018-04-17T09:01:09Z</time>
      </trkpt>
      <trkpt lat="49.30466" lon="-0.06618">
        <ele>100</ele>
        <time>2018-04-17T09:01:16Z</time>
      </trkpt>
      <trkpt lat="49.30469" lon="-0.06614">
        <ele>99</ele>
        <time>2018-04-17T09:01:23Z</time>
      </trkpt>
      <trkpt lat="49.30469" lon="-0.06612">
        <ele>99</ele>
        <time>2018-04-17T09:01:30Z</time>
      </trkpt>
      <trkpt lat="49.30466" lon="-0.06604">
        <ele>100</ele>
        <time>2018-04-17T09:01:37Z</time>
      </trkpt>
      <trkpt lat="49.30467" lon="-0.066">
        <ele>100</ele>
        <time>2018-04-17T09:01:44Z</time>
      </trkpt>
      <trkpt lat="49.30466" lon="-0.06596">
        <ele>100</ele>
        <time>2018-04-17T09:01:51Z</time>
      </trkpt>
      <trkpt lat="49.30464" lon="-0.06589">
        <ele>101</ele>
        <time>2018-04-17T09:01:58Z</time>
      </trkpt>
      <trkpt lat="49.30464" lon="-0.06583">
        <ele>105</ele>
        <time>2018-04-17T09:02:05Z</time>
      </trkpt>
      <trkpt lat="49.30466" lon="-0.06579">
        <ele>104</ele>
        <time>2018-04-17T09:02:12Z</time>
      </trkpt>
      <trkpt lat="49.30468" lon="-0.06572">
        <ele>104</ele>
        <time>2018-04-17T09:02:19Z</time>
      </trkpt>
      <trkpt lat="49.30468" lon="-0.06567">
        <ele>104</ele>
        <time>2018-04-17T09:02:26Z</time>
      </trkpt>
      <trkpt lat="49.30467" lon="-0.0656">
        <ele>105</ele>
        <time>2018-04-17T09:02:33Z</time>
      </trkpt>
      <trkpt lat="49.30463" lon="-0.06552">
        <ele>106</ele>
        <time>2018-04-17T09:02:40Z</time>
      </trkpt>
      <trkpt lat="49.30463" lon="-0.06542">
        <ele>106</ele>
        <time>2018-04-17T09:02:47Z</time>
      </trkpt>
      <trkpt lat="49.30462" lon="-0.06532">
        <ele>106</ele>
        <time>2018-04-17T09:02:54Z</time>
      </trkpt>
      <trkpt lat="49.30463" lon="-0.06522">
        <ele>106</ele>
        <time>2018-04-17T09:03:01Z</time>
      </trkpt>
      <trkpt lat="49.30467" lon="-0.06518">
        <ele>106</ele>
        <time>2018-04-17T09:03:08Z</time>
      </trkpt>
      <trkpt lat="49.30467" lon="-0.06511">
        <ele>105</ele>
        <time>2018-04-17T09:03:15Z</time>
      </trkpt>
      <trkpt lat="49.30469" lon="-0.06509">
        <ele>105</ele>
        <time>2018-04-17T09:03:22Z</time>
      </trkpt>
      <trkpt lat="49.30471" lon="-0.06507">
        <ele>105</ele>
        <time>2018-04-17T09:03:29Z</time>
      </trkpt>
      <trkpt lat="49.30472" lon="-0.06502">
        <ele>104</ele>
        <time>2018-04-17T09:03:36Z</time>
      </trkpt>
      <trkpt lat="49.30473" lon="-0.06496">
        <ele>106</ele>
        <time>2018-04-17T09:03:43Z</time>
      </trkpt>
      <trkpt lat="49.30473" lon="-0.06497">
        <ele>106</ele>
        <time>2018-04-17T09:03:47Z</time>
      </trkpt>
      <trkpt lat="49.30472" lon="-0.06502">
        <ele>104</ele>
        <time>2018-04-17T09:04:12Z</time>
      </trkpt>
      <trkpt lat="49.30474" lon="-0.06499">
        <ele>106</ele>
        <time>2018-04-17T09:04:19Z</time>
      </trkpt>
      <trkpt lat="49.30473" lon="-0.06488">
        <ele>107</ele>
        <time>2018-04-17T09:04:26Z</time>
      </trkpt>
      <trkpt lat="49.30472" lon="-0.06478">
        <ele>108</ele>
        <time>2018-04-17T09:04:33Z</time>
      </trkpt>
      <trkpt lat="49.30473" lon="-0.06471">
        <ele>108</ele>
        <time>2018-04-17T09:04:40Z</time>
      </trkpt>
      <trkpt lat="49.30474" lon="-0.06463">
        <ele>108</ele>
        <time>2018-04-17T09:04:47Z</time>
      </trkpt>
      <trkpt lat="49.30476" lon="-0.06456">
        <ele>108</ele>
        <time>2018-04-17T09:04:54Z</time>
      </trkpt>
      <trkpt lat="49.3048" lon="-0.06449">
        <ele>108</ele>
        <time>2018-04-17T09:05:01Z</time>
      </trkpt>
      <trkpt lat="49.30479" lon="-0.06442">
        <ele>108</ele>
        <time>2018-04-17T09:05:08Z</time>
      </trkpt>
      <trkpt lat="49.30479" lon="-0.06431">
        <ele>108</ele>
        <time>2018-04-17T09:05:15Z</time>
      </trkpt>
      <trkpt lat="49.30481" lon="-0.06426">
        <ele>108</ele>
        <time>2018-04-17T09:05:22Z</time>
      </trkpt>
      <trkpt lat="49.30481" lon="-0.06421">
        <ele>108</ele>
        <time>2018-04-17T09:05:29Z</time>
      </trkpt>
      <trkpt lat="49.30484" lon="-0.06415">
        <ele>109</ele>
        <time>2018-04-17T09:05:36Z</time>
      </trkpt>
      <trkpt lat="49.30485" lon="-0.06409">
        <ele>109</ele>
        <time>2018-04-17T09:05:43Z</time>
      </trkpt>
      <trkpt lat="49.30486" lon="-0.06407">
        <ele>109</ele>
        <time>2018-04-17T09:05:48Z</time>
      </trkpt>
      <trkpt lat="49.30488" lon="-0.06402">
        <ele>109</ele>
        <time>2018-04-17T09:05:55Z</time>
      </trkpt>
      <trkpt lat="49.30491" lon="-0.06392">
        <ele>110</ele>
        <time>2018-04-17T09:06:02Z</time>
      </trkpt>
      <trkpt lat="49.30495" lon="-0.06392">
        <ele>110</ele>
        <time>2018-04-17T09:06:09Z</time>
      </trkpt>
      <trkpt lat="49.30496" lon="-0.06389">
        <ele>110</ele>
        <time>2018-04-17T09:06:16Z</time>
      </trkpt>
      <trkpt lat="49.30496" lon="-0.06382">
        <ele>111</ele>
        <time>2018-04-17T09:06:23Z</time>
      </trkpt>
      <trkpt lat="49.30498" lon="-0.06374">
        <ele>111</ele>
        <time>2018-04-17T09:06:30Z</time>
      </trkpt>
      <trkpt lat="49.30495" lon="-0.06364">
        <ele>111</ele>
        <time>2018-04-17T09:06:37Z</time>
      </trkpt>
      <trkpt lat="49.30496" lon="-0.06357">
        <ele>111</ele>
        <time>2018-04-17T09:06:44Z</time>
      </trkpt>
      <trkpt lat="49.30495" lon="-0.06346">
        <ele>111</ele>
        <time>2018-04-17T09:06:51Z</time>
      </trkpt>
      <trkpt lat="49.30494" lon="-0.06336">
        <ele>111</ele>
        <time>2018-04-17T09:06:58Z</time>
      </trkpt>
      <trkpt lat="49.30495" lon="-0.06332">
        <ele>111</ele>
        <time>2018-04-17T09:07:05Z</time>
      </trkpt>
      <trkpt lat="49.30496" lon="-0.06321">
        <ele>112</ele>
        <time>2018-04-17T09:07:12Z</time>
      </trkpt>
      <trkpt lat="49.305" lon="-0.06311">
        <ele>112</ele>
        <time>2018-04-17T09:07:19Z</time>
      </trkpt>
      <trkpt lat="49.30498" lon="-0.06302">
        <ele>113</ele>
        <time>2018-04-17T09:07:26Z</time>
      </trkpt>
      <trkpt lat="49.30498" lon="-0.06293">
        <ele>113</ele>
        <time>2018-04-17T09:07:33Z</time>
      </trkpt>
      <trkpt lat="49.30496" lon="-0.06287">
        <ele>113</ele>
        <time>2018-04-17T09:07:40Z</time>
      </trkpt>
      <trkpt lat="49.30498" lon="-0.06279">
        <ele>113</ele>
        <time>2018-04-17T09:07:47Z</time>
      </trkpt>
      <trkpt lat="49.30498" lon="-0.06267">
        <ele>112</ele>
        <time>2018-04-17T09:07:54Z</time>
      </trkpt>
      <trkpt lat="49.30501" lon="-0.06256">
        <ele>108</ele>
        <time>2018-04-17T09:08:00Z</time>
      </trkpt>
      <trkpt lat="49.305" lon="-0.06245">
        <ele>112</ele>
        <time>2018-04-17T09:08:06Z</time>
      </trkpt>
      <trkpt lat="49.305" lon="-0.06233">
        <ele>112</ele>
        <time>2018-04-17T09:08:12Z</time>
      </trkpt>
      <trkpt lat="49.30498" lon="-0.0622">
        <ele>113</ele>
        <time>2018-04-17T09:08:19Z</time>
      </trkpt>
      <trkpt lat="49.305" lon="-0.06208">
        <ele>113</ele>
        <time>2018-04-17T09:08:26Z</time>
      </trkpt>
      <trkpt lat="49.30499" lon="-0.06198">
        <ele>113</ele>
        <time>2018-04-17T09:08:33Z</time>
      </trkpt>
      <trkpt lat="49.30496" lon="-0.0619">
        <ele>113</ele>
        <time>2018-04-17T09:08:40Z</time>
      </trkpt>
      <trkpt lat="49.30498" lon="-0.06184">
        <ele>113</ele>
        <time>2018-04-17T09:08:47Z</time>
      </trkpt>
      <trkpt lat="49.30496" lon="-0.06174">
        <ele>113</ele>
        <time>2018-04-17T09:08:53Z</time>
      </trkpt>
      <trkpt lat="49.30498" lon="-0.06167">
        <ele>112</ele>
        <time>2018-04-17T09:09:00Z</time>
      </trkpt>
      <trkpt lat="49.30496" lon="-0.06158">
        <ele>113</ele>
        <time>2018-04-17T09:09:07Z</time>
      </trkpt>
      <trkpt lat="49.30495" lon="-0.06151">
        <ele>113</ele>
        <time>2018-04-17T09:09:14Z</time>
      </trkpt>
      <trkpt lat="49.30494" lon="-0.06138">
        <ele>113</ele>
        <time>2018-04-17T09:09:19Z</time>
      </trkpt>
      <trkpt lat="49.30494" lon="-0.06126">
        <ele>113</ele>
        <time>2018-04-17T09:09:24Z</time>
      </trkpt>
      <trkpt lat="49.30494" lon="-0.06115">
        <ele>113</ele>
        <time>2018-04-17T09:09:31Z</time>
      </trkpt>
      <trkpt lat="49.30495" lon="-0.06104">
        <ele>112</ele>
        <time>2018-04-17T09:09:37Z</time>
      </trkpt>
      <trkpt lat="49.30494" lon="-0.06097">
        <ele>112</ele>
        <time>2018-04-17T09:09:44Z</time>
      </trkpt>
      <trkpt lat="49.30491" lon="-0.06087">
        <ele>111</ele>
        <time>2018-04-17T09:09:50Z</time>
      </trkpt>
      <trkpt lat="49.30492" lon="-0.06074">
        <ele>111</ele>
        <time>2018-04-17T09:09:56Z</time>
      </trkpt>
      <trkpt lat="49.30491" lon="-0.06063">
        <ele>112</ele>
        <time>2018-04-17T09:10:02Z</time>
      </trkpt>
      <trkpt lat="49.30491" lon="-0.06052">
        <ele>112</ele>
        <time>2018-04-17T09:10:09Z</time>
      </trkpt>
      <trkpt lat="49.30489" lon="-0.06041">
        <ele>112</ele>
        <time>2018-04-17T09:10:14Z</time>
      </trkpt>
      <trkpt lat="49.30489" lon="-0.06029">
        <ele>112</ele>
        <time>2018-04-17T09:10:19Z</time>
      </trkpt>
      <trkpt lat="49.30487" lon="-0.0602">
        <ele>112</ele>
        <time>2018-04-17T09:10:26Z</time>
      </trkpt>
      <trkpt lat="49.30486" lon="-0.06009">
        <ele>112</ele>
        <time>2018-04-17T09:10:32Z</time>
      </trkpt>
      <trkpt lat="49.30486" lon="-0.05998">
        <ele>111</ele>
        <time>2018-04-17T09:10:36Z</time>
      </trkpt>
      <trkpt lat="49.30487" lon="-0.05984">
        <ele>111</ele>
        <time>2018-04-17T09:10:42Z</time>
      </trkpt>
      <trkpt lat="49.30486" lon="-0.05974">
        <ele>111</ele>
        <time>2018-04-17T09:10:47Z</time>
      </trkpt>
      <trkpt lat="49.30486" lon="-0.05962">
        <ele>111</ele>
        <time>2018-04-17T09:10:54Z</time>
      </trkpt>
      <trkpt lat="49.30483" lon="-0.05951">
        <ele>111</ele>
        <time>2018-04-17T09:11:01Z</time>
      </trkpt>
      <trkpt lat="49.30481" lon="-0.05939">
        <ele>111</ele>
        <time>2018-04-17T09:11:07Z</time>
      </trkpt>
      <trkpt lat="49.30481" lon="-0.05927">
        <ele>111</ele>
        <time>2018-04-17T09:11:11Z</time>
      </trkpt>
      <trkpt lat="49.30482" lon="-0.05916">
        <ele>110</ele>
        <time>2018-04-17T09:11:16Z</time>
      </trkpt>
      <trkpt lat="49.30483" lon="-0.05906">
        <ele>110</ele>
        <time>2018-04-17T09:11:23Z</time>
      </trkpt>
      <trkpt lat="49.30481" lon="-0.05893">
        <ele>111</ele>
        <time>2018-04-17T09:11:29Z</time>
      </trkpt>
      <trkpt lat="49.30481" lon="-0.05882">
        <ele>111</ele>
        <time>2018-04-17T09:11:35Z</time>
      </trkpt>
      <trkpt lat="49.30481" lon="-0.05868">
        <ele>111</ele>
        <time>2018-04-17T09:11:42Z</time>
      </trkpt>
      <trkpt lat="49.30479" lon="-0.05857">
        <ele>111</ele>
        <time>2018-04-17T09:11:47Z</time>
      </trkpt>
      <trkpt lat="49.30479" lon="-0.05844">
        <ele>110</ele>
        <time>2018-04-17T09:11:54Z</time>
      </trkpt>
      <trkpt lat="49.30478" lon="-0.05833">
        <ele>110</ele>
        <time>2018-04-17T09:12:00Z</time>
      </trkpt>
      <trkpt lat="49.30479" lon="-0.05821">
        <ele>110</ele>
        <time>2018-04-17T09:12:06Z</time>
      </trkpt>
      <trkpt lat="49.30475" lon="-0.05811">
        <ele>110</ele>
        <time>2018-04-17T09:12:11Z</time>
      </trkpt>
      <trkpt lat="49.30477" lon="-0.05801">
        <ele>110</ele>
        <time>2018-04-17T09:12:18Z</time>
      </trkpt>
      <trkpt lat="49.30476" lon="-0.05789">
        <ele>110</ele>
        <time>2018-04-17T09:12:24Z</time>
      </trkpt>
      <trkpt lat="49.30479" lon="-0.05776">
        <ele>109</ele>
        <time>2018-04-17T09:12:30Z</time>
      </trkpt>
      <trkpt lat="49.30481" lon="-0.05764">
        <ele>109</ele>
        <time>2018-04-17T09:12:35Z</time>
      </trkpt>
      <trkpt lat="49.30484" lon="-0.05753">
        <ele>108</ele>
        <time>2018-04-17T09:12:42Z</time>
      </trkpt>
      <trkpt lat="49.30485" lon="-0.05749">
        <ele>108</ele>
        <time>2018-04-17T09:12:49Z</time>
      </trkpt>
      <trkpt lat="49.30482" lon="-0.05739">
        <ele>108</ele>
        <time>2018-04-17T09:12:56Z</time>
      </trkpt>
      <trkpt lat="49.30484" lon="-0.05726">
        <ele>109</ele>
        <time>2018-04-17T09:13:03Z</time>
      </trkpt>
      <trkpt lat="49.30484" lon="-0.05715">
        <ele>109</ele>
        <time>2018-04-17T09:13:09Z</time>
      </trkpt>
      <trkpt lat="49.30489" lon="-0.05705">
        <ele>109</ele>
        <time>2018-04-17T09:13:16Z</time>
      </trkpt>
      <trkpt lat="49.30492" lon="-0.05694">
        <ele>109</ele>
        <time>2018-04-17T09:13:23Z</time>
      </trkpt>
      <trkpt lat="49.30496" lon="-0.05684">
        <ele>109</ele>
        <time>2018-04-17T09:13:30Z</time>
      </trkpt>
      <trkpt lat="49.305" lon="-0.05672">
        <ele>109</ele>
        <time>2018-04-17T09:13:37Z</time>
      </trkpt>
      <trkpt lat="49.30504" lon="-0.05663">
        <ele>109</ele>
        <time>2018-04-17T09:13:42Z</time>
      </trkpt>
      <trkpt lat="49.30508" lon="-0.05651">
        <ele>109</ele>
        <time>2018-04-17T09:13:48Z</time>
      </trkpt>
      <trkpt lat="49.30512" lon="-0.05642">
        <ele>109</ele>
        <time>2018-04-17T09:13:55Z</time>
      </trkpt>
      <trkpt lat="49.30516" lon="-0.05634">
        <ele>109</ele>
        <time>2018-04-17T09:14:02Z</time>
      </trkpt>
      <trkpt lat="49.3052" lon="-0.05625">
        <ele>109</ele>
        <time>2018-04-17T09:14:08Z</time>
      </trkpt>
      <trkpt lat="49.30525" lon="-0.05618">
        <ele>109</ele>
        <time>2018-04-17T09:14:15Z</time>
      </trkpt>
      <trkpt lat="49.30527" lon="-0.05606">
        <ele>109</ele>
        <time>2018-04-17T09:14:21Z</time>
      </trkpt>
      <trkpt lat="49.30528" lon="-0.05598">
        <ele>109</ele>
        <time>2018-04-17T09:14:28Z</time>
      </trkpt>
      <trkpt lat="49.30527" lon="-0.05587">
        <ele>109</ele>
        <time>2018-04-17T09:14:35Z</time>
      </trkpt>
      <trkpt lat="49.3053" lon="-0.05576">
        <ele>110</ele>
        <time>2018-04-17T09:14:42Z</time>
      </trkpt>
      <trkpt lat="49.30536" lon="-0.0557">
        <ele>110</ele>
        <time>2018-04-17T09:14:47Z</time>
      </trkpt>
      <trkpt lat="49.30541" lon="-0.0556">
        <ele>110</ele>
        <time>2018-04-17T09:14:54Z</time>
      </trkpt>
      <trkpt lat="49.30544" lon="-0.05549">
        <ele>110</ele>
        <time>2018-04-17T09:15:00Z</time>
      </trkpt>
      <trkpt lat="49.30549" lon="-0.05539">
        <ele>110</ele>
        <time>2018-04-17T09:15:06Z</time>
      </trkpt>
      <trkpt lat="49.3055" lon="-0.05529">
        <ele>111</ele>
        <time>2018-04-17T09:15:12Z</time>
      </trkpt>
      <trkpt lat="49.30555" lon="-0.05519">
        <ele>111</ele>
        <time>2018-04-17T09:15:19Z</time>
      </trkpt>
      <trkpt lat="49.30557" lon="-0.05511">
        <ele>111</ele>
        <time>2018-04-17T09:15:26Z</time>
      </trkpt>
      <trkpt lat="49.3056" lon="-0.05501">
        <ele>111</ele>
        <time>2018-04-17T09:15:33Z</time>
      </trkpt>
      <trkpt lat="49.30565" lon="-0.05494">
        <ele>112</ele>
        <time>2018-04-17T09:15:40Z</time>
      </trkpt>
      <trkpt lat="49.30568" lon="-0.05483">
        <ele>112</ele>
        <time>2018-04-17T09:15:46Z</time>
      </trkpt>
      <trkpt lat="49.30572" lon="-0.05472">
        <ele>112</ele>
        <time>2018-04-17T09:15:53Z</time>
      </trkpt>
      <trkpt lat="49.30576" lon="-0.05463">
        <ele>112</ele>
        <time>2018-04-17T09:16:00Z</time>
      </trkpt>
      <trkpt lat="49.30578" lon="-0.0545">
        <ele>112</ele>
        <time>2018-04-17T09:16:06Z</time>
      </trkpt>
      <trkpt lat="49.30579" lon="-0.05442">
        <ele>112</ele>
        <time>2018-04-17T09:16:13Z</time>
      </trkpt>
      <trkpt lat="49.30581" lon="-0.05431">
        <ele>112</ele>
        <time>2018-04-17T09:16:20Z</time>
      </trkpt>
      <trkpt lat="49.30583" lon="-0.0542">
        <ele>112</ele>
        <time>2018-04-17T09:16:26Z</time>
      </trkpt>
      <trkpt lat="49.30585" lon="-0.05411">
        <ele>112</ele>
        <time>2018-04-17T09:16:33Z</time>
      </trkpt>
      <trkpt lat="49.30586" lon="-0.054">
        <ele>112</ele>
        <time>2018-04-17T09:16:39Z</time>
      </trkpt>
      <trkpt lat="49.30588" lon="-0.05388">
        <ele>112</ele>
        <time>2018-04-17T09:16:45Z</time>
      </trkpt>
      <trkpt lat="49.30592" lon="-0.05379">
        <ele>112</ele>
        <time>2018-04-17T09:16:52Z</time>
      </trkpt>
      <trkpt lat="49.30592" lon="-0.05372">
        <ele>112</ele>
        <time>2018-04-17T09:16:59Z</time>
      </trkpt>
      <trkpt lat="49.3059" lon="-0.05361">
        <ele>112</ele>
        <time>2018-04-17T09:17:05Z</time>
      </trkpt>
      <trkpt lat="49.3059" lon="-0.05352">
        <ele>112</ele>
        <time>2018-04-17T09:17:12Z</time>
      </trkpt>
      <trkpt lat="49.3059" lon="-0.0534">
        <ele>113</ele>
        <time>2018-04-17T09:17:19Z</time>
      </trkpt>
      <trkpt lat="49.3059" lon="-0.0534">
        <ele>113</ele>
        <time>2018-04-17T09:17:26Z</time>
      </trkpt>
      <trkpt lat="49.30592" lon="-0.0533">
        <ele>113</ele>
        <time>2018-04-17T09:17:33Z</time>
      </trkpt>
      <trkpt lat="49.30593" lon="-0.05318">
        <ele>113</ele>
        <time>2018-04-17T09:17:39Z</time>
      </trkpt>
      <trkpt lat="49.30594" lon="-0.05315">
        <ele>113</ele>
        <time>2018-04-17T09:17:46Z</time>
      </trkpt>
      <trkpt lat="49.30594" lon="-0.05315">
        <ele>113</ele>
        <time>2018-04-17T09:17:48Z</time>
      </trkpt>
      <trkpt lat="49.30597" lon="-0.05315">
        <ele>113</ele>
        <time>2018-04-17T09:18:09Z</time>
      </trkpt>
      <trkpt lat="49.30596" lon="-0.05315">
        <ele>113</ele>
        <time>2018-04-17T09:18:14Z</time>
      </trkpt>
      <trkpt lat="49.30598" lon="-0.05315">
        <ele>113</ele>
        <time>2018-04-17T09:18:22Z</time>
      </trkpt>
      <trkpt lat="49.30598" lon="-0.05315">
        <ele>113</ele>
        <time>2018-04-17T09:18:23Z</time>
      </trkpt>
      <trkpt lat="49.30598" lon="-0.05315">
        <ele>113</ele>
        <time>2018-04-17T09:18:32Z</time>
      </trkpt>
      <trkpt lat="49.30598" lon="-0.05315">
        <ele>113</ele>
        <time>2018-04-17T09:18:33Z</time>
      </trkpt>
      <trkpt lat="49.30595" lon="-0.05304">
        <ele>113</ele>
        <time>2018-04-17T09:18:47Z</time>
      </trkpt>
      <trkpt lat="49.30595" lon="-0.05293">
        <ele>113</ele>
        <time>2018-04-17T09:18:52Z</time>
      </trkpt>
      <trkpt lat="49.30595" lon="-0.05281">
        <ele>113</ele>
        <time>2018-04-17T09:18:59Z</time>
      </trkpt>
      <trkpt lat="49.30597" lon="-0.05268">
        <ele>113</ele>
        <time>2018-04-17T09:19:06Z</time>
      </trkpt>
      <trkpt lat="49.30596" lon="-0.05259">
        <ele>113</ele>
        <time>2018-04-17T09:19:13Z</time>
      </trkpt>
      <trkpt lat="49.30598" lon="-0.05248">
        <ele>113</ele>
        <time>2018-04-17T09:19:19Z</time>
      </trkpt>
      <trkpt lat="49.30599" lon="-0.0524">
        <ele>113</ele>
        <time>2018-04-17T09:19:26Z</time>
      </trkpt>
      <trkpt lat="49.30601" lon="-0.0523">
        <ele>113</ele>
        <time>2018-04-17T09:19:33Z</time>
      </trkpt>
      <trkpt lat="49.30602" lon="-0.05219">
        <ele>113</ele>
        <time>2018-04-17T09:19:39Z</time>
      </trkpt>
      <trkpt lat="49.30603" lon="-0.05207">
        <ele>113</ele>
        <time>2018-04-17T09:19:46Z</time>
      </trkpt>
      <trkpt lat="49.30604" lon="-0.05194">
        <ele>113</ele>
        <time>2018-04-17T09:19:52Z</time>
      </trkpt>
      <trkpt lat="49.30606" lon="-0.05183">
        <ele>113</ele>
        <time>2018-04-17T09:19:57Z</time>
      </trkpt>
      <trkpt lat="49.30606" lon="-0.05171">
        <ele>113</ele>
        <time>2018-04-17T09:20:02Z</time>
      </trkpt>
      <trkpt lat="49.30607" lon="-0.05159">
        <ele>113</ele>
        <time>2018-04-17T09:20:08Z</time>
      </trkpt>
      <trkpt lat="49.30608" lon="-0.05145">
        <ele>113</ele>
        <time>2018-04-17T09:20:14Z</time>
      </trkpt>
      <trkpt lat="49.30608" lon="-0.05134">
        <ele>113</ele>
        <time>2018-04-17T09:20:20Z</time>
      </trkpt>
      <trkpt lat="49.30609" lon="-0.05122">
        <ele>113</ele>
        <time>2018-04-17T09:20:26Z</time>
      </trkpt>
      <trkpt lat="49.3061" lon="-0.0511">
        <ele>113</ele>
        <time>2018-04-17T09:20:32Z</time>
      </trkpt>
      <trkpt lat="49.30612" lon="-0.05098">
        <ele>113</ele>
        <time>2018-04-17T09:20:39Z</time>
      </trkpt>
      <trkpt lat="49.30612" lon="-0.05086">
        <ele>113</ele>
        <time>2018-04-17T09:20:46Z</time>
      </trkpt>
      <trkpt lat="49.30614" lon="-0.05075">
        <ele>112</ele>
        <time>2018-04-17T09:20:53Z</time>
      </trkpt>
      <trkpt lat="49.30614" lon="-0.05064">
        <ele>112</ele>
        <time>2018-04-17T09:21:00Z</time>
      </trkpt>
      <trkpt lat="49.30617" lon="-0.05051">
        <ele>112</ele>
        <time>2018-04-17T09:21:06Z</time>
      </trkpt>
      <trkpt lat="49.30613" lon="-0.05041">
        <ele>112</ele>
        <time>2018-04-17T09:21:13Z</time>
      </trkpt>
      <trkpt lat="49.3061" lon="-0.0503">
        <ele>112</ele>
        <time>2018-04-17T09:21:20Z</time>
      </trkpt>
      <trkpt lat="49.30612" lon="-0.05019">
        <ele>112</ele>
        <time>2018-04-17T09:21:26Z</time>
      </trkpt>
      <trkpt lat="49.30613" lon="-0.05007">
        <ele>112</ele>
        <time>2018-04-17T09:21:32Z</time>
      </trkpt>
      <trkpt lat="49.30614" lon="-0.04997">
        <ele>113</ele>
        <time>2018-04-17T09:21:39Z</time>
      </trkpt>
      <trkpt lat="49.30616" lon="-0.04985">
        <ele>113</ele>
        <time>2018-04-17T09:21:45Z</time>
      </trkpt>
      <trkpt lat="49.30616" lon="-0.04975">
        <ele>113</ele>
        <time>2018-04-17T09:21:52Z</time>
      </trkpt>
      <trkpt lat="49.30617" lon="-0.04964">
        <ele>113</ele>
        <time>2018-04-17T09:21:58Z</time>
      </trkpt>
      <trkpt lat="49.30617" lon="-0.0496">
        <ele>113</ele>
        <time>2018-04-17T09:22:05Z</time>
      </trkpt>
      <trkpt lat="49.30617" lon="-0.04951">
        <ele>113</ele>
        <time>2018-04-17T09:22:12Z</time>
      </trkpt>
      <trkpt lat="49.30619" lon="-0.04938">
        <ele>113</ele>
        <time>2018-04-17T09:22:19Z</time>
      </trkpt>
      <trkpt lat="49.30619" lon="-0.0493">
        <ele>113</ele>
        <time>2018-04-17T09:22:26Z</time>
      </trkpt>
      <trkpt lat="49.30619" lon="-0.04919">
        <ele>113</ele>
        <time>2018-04-17T09:22:32Z</time>
      </trkpt>
      <trkpt lat="49.30621" lon="-0.04908">
        <ele>113</ele>
        <time>2018-04-17T09:22:38Z</time>
      </trkpt>
      <trkpt lat="49.30622" lon="-0.04897">
        <ele>113</ele>
        <time>2018-04-17T09:22:45Z</time>
      </trkpt>
      <trkpt lat="49.30623" lon="-0.0489">
        <ele>113</ele>
        <time>2018-04-17T09:22:52Z</time>
      </trkpt>
      <trkpt lat="49.30624" lon="-0.04878">
        <ele>113</ele>
        <time>2018-04-17T09:22:58Z</time>
      </trkpt>
      <trkpt lat="49.30626" lon="-0.04867">
        <ele>113</ele>
        <time>2018-04-17T09:23:05Z</time>
      </trkpt>
      <trkpt lat="49.30628" lon="-0.04856">
        <ele>113</ele>
        <time>2018-04-17T09:23:11Z</time>
      </trkpt>
      <trkpt lat="49.30627" lon="-0.04847">
        <ele>113</ele>
        <time>2018-04-17T09:23:18Z</time>
      </trkpt>
      <trkpt lat="49.30628" lon="-0.04834">
        <ele>113</ele>
        <time>2018-04-17T09:23:24Z</time>
      </trkpt>
      <trkpt lat="49.30627" lon="-0.04822">
        <ele>115</ele>
        <time>2018-04-17T09:23:31Z</time>
      </trkpt>
      <trkpt lat="49.30629" lon="-0.04811">
        <ele>115</ele>
        <time>2018-04-17T09:23:37Z</time>
      </trkpt>
      <trkpt lat="49.3063" lon="-0.04802">
        <ele>115</ele>
        <time>2018-04-17T09:23:44Z</time>
      </trkpt>
      <trkpt lat="49.30632" lon="-0.04795">
        <ele>115</ele>
        <time>2018-04-17T09:23:51Z</time>
      </trkpt>
      <trkpt lat="49.30635" lon="-0.04784">
        <ele>115</ele>
        <time>2018-04-17T09:23:58Z</time>
      </trkpt>
      <trkpt lat="49.30636" lon="-0.04781">
        <ele>115</ele>
        <time>2018-04-17T09:24:05Z</time>
      </trkpt>
      <trkpt lat="49.30638" lon="-0.04771">
        <ele>116</ele>
        <time>2018-04-17T09:24:12Z</time>
      </trkpt>
      <trkpt lat="49.30641" lon="-0.0476">
        <ele>116</ele>
        <time>2018-04-17T09:24:19Z</time>
      </trkpt>
      <trkpt lat="49.30644" lon="-0.04749">
        <ele>117</ele>
        <time>2018-04-17T09:24:25Z</time>
      </trkpt>
      <trkpt lat="49.30645" lon="-0.04746">
        <ele>117</ele>
        <time>2018-04-17T09:24:32Z</time>
      </trkpt>
      <trkpt lat="49.30648" lon="-0.04735">
        <ele>117</ele>
        <time>2018-04-17T09:24:39Z</time>
      </trkpt>
      <trkpt lat="49.3065" lon="-0.04723">
        <ele>117</ele>
        <time>2018-04-17T09:24:46Z</time>
      </trkpt>
      <trkpt lat="49.30654" lon="-0.04712">
        <ele>117</ele>
        <time>2018-04-17T09:24:52Z</time>
      </trkpt>
      <trkpt lat="49.30655" lon="-0.04701">
        <ele>117</ele>
        <time>2018-04-17T09:24:59Z</time>
      </trkpt>
      <trkpt lat="49.30659" lon="-0.04689">
        <ele>117</ele>
        <time>2018-04-17T09:25:06Z</time>
      </trkpt>
      <trkpt lat="49.30662" lon="-0.04677">
        <ele>116</ele>
        <time>2018-04-17T09:25:12Z</time>
      </trkpt>
      <trkpt lat="49.30667" lon="-0.04668">
        <ele>116</ele>
        <time>2018-04-17T09:25:19Z</time>
      </trkpt>
      <trkpt lat="49.30668" lon="-0.04661">
        <ele>116</ele>
        <time>2018-04-17T09:25:26Z</time>
      </trkpt>
      <trkpt lat="49.3067" lon="-0.04656">
        <ele>116</ele>
        <time>2018-04-17T09:25:33Z</time>
      </trkpt>
      <trkpt lat="49.30675" lon="-0.04646">
        <ele>116</ele>
        <time>2018-04-17T09:25:39Z</time>
      </trkpt>
      <trkpt lat="49.30675" lon="-0.04643">
        <ele>116</ele>
        <time>2018-04-17T09:25:46Z</time>
      </trkpt>
      <trkpt lat="49.30674" lon="-0.04643">
        <ele>116</ele>
        <time>2018-04-17T09:25:50Z</time>
      </trkpt>
      <trkpt lat="49.30674" lon="-0.04634">
        <ele>116</ele>
        <time>2018-04-17T09:26:01Z</time>
      </trkpt>
      <trkpt lat="49.30676" lon="-0.04622">
        <ele>116</ele>
        <time>2018-04-17T09:26:08Z</time>
      </trkpt>
      <trkpt lat="49.30678" lon="-0.04613">
        <ele>116</ele>
        <time>2018-04-17T09:26:15Z</time>
      </trkpt>
      <trkpt lat="49.30682" lon="-0.04601">
        <ele>116</ele>
        <time>2018-04-17T09:26:21Z</time>
      </trkpt>
      <trkpt lat="49.30683" lon="-0.04589">
        <ele>116</ele>
        <time>2018-04-17T09:26:27Z</time>
      </trkpt>
      <trkpt lat="49.30683" lon="-0.04578">
        <ele>117</ele>
        <time>2018-04-17T09:26:33Z</time>
      </trkpt>
      <trkpt lat="49.30686" lon="-0.04566">
        <ele>117</ele>
        <time>2018-04-17T09:26:40Z</time>
      </trkpt>
      <trkpt lat="49.30685" lon="-0.04552">
        <ele>117</ele>
        <time>2018-04-17T09:26:46Z</time>
      </trkpt>
      <trkpt lat="49.30682" lon="-0.04543">
        <ele>117</ele>
        <time>2018-04-17T09:26:53Z</time>
      </trkpt>
      <trkpt lat="49.30683" lon="-0.04539">
        <ele>117</ele>
        <time>2018-04-17T09:27:00Z</time>
      </trkpt>
      <trkpt lat="49.30685" lon="-0.04528">
        <ele>117</ele>
        <time>2018-04-17T09:27:06Z</time>
      </trkpt>
      <trkpt lat="49.30688" lon="-0.04516">
        <ele>117</ele>
        <time>2018-04-17T09:27:13Z</time>
      </trkpt>
      <trkpt lat="49.30691" lon="-0.04507">
        <ele>117</ele>
        <time>2018-04-17T09:27:19Z</time>
      </trkpt>
      <trkpt lat="49.30693" lon="-0.04496">
        <ele>118</ele>
        <time>2018-04-17T09:27:26Z</time>
      </trkpt>
      <trkpt lat="49.30693" lon="-0.0449">
        <ele>118</ele>
        <time>2018-04-17T09:27:33Z</time>
      </trkpt>
      <trkpt lat="49.30697" lon="-0.04479">
        <ele>118</ele>
        <time>2018-04-17T09:27:39Z</time>
      </trkpt>
      <trkpt lat="49.30697" lon="-0.04468">
        <ele>118</ele>
        <time>2018-04-17T09:27:44Z</time>
      </trkpt>
      <trkpt lat="49.307" lon="-0.04461">
        <ele>118</ele>
        <time>2018-04-17T09:27:51Z</time>
      </trkpt>
      <trkpt lat="49.30702" lon="-0.04453">
        <ele>118</ele>
        <time>2018-04-17T09:27:58Z</time>
      </trkpt>
      <trkpt lat="49.30707" lon="-0.04442">
        <ele>118</ele>
        <time>2018-04-17T09:28:04Z</time>
      </trkpt>
      <trkpt lat="49.30709" lon="-0.04431">
        <ele>118</ele>
        <time>2018-04-17T09:28:10Z</time>
      </trkpt>
      <trkpt lat="49.30714" lon="-0.04421">
        <ele>118</ele>
        <time>2018-04-17T09:28:16Z</time>
      </trkpt>
      <trkpt lat="49.30717" lon="-0.04414">
        <ele>118</ele>
        <time>2018-04-17T09:28:23Z</time>
      </trkpt>
      <trkpt lat="49.30722" lon="-0.04405">
        <ele>118</ele>
        <time>2018-04-17T09:28:28Z</time>
      </trkpt>
      <trkpt lat="49.30726" lon="-0.04394">
        <ele>118</ele>
        <time>2018-04-17T09:28:35Z</time>
      </trkpt>
      <trkpt lat="49.30727" lon="-0.0439">
        <ele>118</ele>
        <time>2018-04-17T09:28:42Z</time>
      </trkpt>
      <trkpt lat="49.30731" lon="-0.0438">
        <ele>118</ele>
        <time>2018-04-17T09:28:48Z</time>
      </trkpt>
      <trkpt lat="49.30734" lon="-0.04372">
        <ele>118</ele>
        <time>2018-04-17T09:28:55Z</time>
      </trkpt>
      <trkpt lat="49.30736" lon="-0.04365">
        <ele>118</ele>
        <time>2018-04-17T09:29:02Z</time>
      </trkpt>
      <trkpt lat="49.30739" lon="-0.04354">
        <ele>118</ele>
        <time>2018-04-17T09:29:09Z</time>
      </trkpt>
      <trkpt lat="49.30743" lon="-0.04344">
        <ele>117</ele>
        <time>2018-04-17T09:29:15Z</time>
      </trkpt>
      <trkpt lat="49.30747" lon="-0.04334">
        <ele>117</ele>
        <time>2018-04-17T09:29:20Z</time>
      </trkpt>
      <trkpt lat="49.3075" lon="-0.04323">
        <ele>118</ele>
        <time>2018-04-17T09:29:26Z</time>
      </trkpt>
      <trkpt lat="49.30752" lon="-0.04313">
        <ele>117</ele>
        <time>2018-04-17T09:29:33Z</time>
      </trkpt>
      <trkpt lat="49.30753" lon="-0.04305">
        <ele>117</ele>
        <time>2018-04-17T09:29:40Z</time>
      </trkpt>
      <trkpt lat="49.30754" lon="-0.04298">
        <ele>117</ele>
        <time>2018-04-17T09:29:47Z</time>
      </trkpt>
      <trkpt lat="49.30752" lon="-0.04287">
        <ele>118</ele>
        <time>2018-04-17T09:29:53Z</time>
      </trkpt>
      <trkpt lat="49.30753" lon="-0.04276">
        <ele>118</ele>
        <time>2018-04-17T09:29:59Z</time>
      </trkpt>
      <trkpt lat="49.30754" lon="-0.04269">
        <ele>118</ele>
        <time>2018-04-17T09:30:06Z</time>
      </trkpt>
      <trkpt lat="49.30754" lon="-0.04261">
        <ele>118</ele>
        <time>2018-04-17T09:30:13Z</time>
      </trkpt>
      <trkpt lat="49.30757" lon="-0.04247">
        <ele>119</ele>
        <time>2018-04-17T09:30:19Z</time>
      </trkpt>
      <trkpt lat="49.30758" lon="-0.04237">
        <ele>119</ele>
        <time>2018-04-17T09:30:26Z</time>
      </trkpt>
      <trkpt lat="49.30759" lon="-0.04226">
        <ele>119</ele>
        <time>2018-04-17T09:30:32Z</time>
      </trkpt>
      <trkpt lat="49.30761" lon="-0.04213">
        <ele>119</ele>
        <time>2018-04-17T09:30:39Z</time>
      </trkpt>
      <trkpt lat="49.30765" lon="-0.04202">
        <ele>119</ele>
        <time>2018-04-17T09:30:46Z</time>
      </trkpt>
      <trkpt lat="49.30763" lon="-0.04188">
        <ele>120</ele>
        <time>2018-04-17T09:30:52Z</time>
      </trkpt>
      <trkpt lat="49.30766" lon="-0.04181">
        <ele>120</ele>
        <time>2018-04-17T09:30:59Z</time>
      </trkpt>
      <trkpt lat="49.30764" lon="-0.04176">
        <ele>120</ele>
        <time>2018-04-17T09:31:06Z</time>
      </trkpt>
      <trkpt lat="49.30765" lon="-0.04165">
        <ele>121</ele>
        <time>2018-04-17T09:31:13Z</time>
      </trkpt>
      <trkpt lat="49.30764" lon="-0.04158">
        <ele>120</ele>
        <time>2018-04-17T09:31:20Z</time>
      </trkpt>
      <trkpt lat="49.30764" lon="-0.0415">
        <ele>120</ele>
        <time>2018-04-17T09:31:27Z</time>
      </trkpt>
      <trkpt lat="49.30761" lon="-0.04145">
        <ele>120</ele>
        <time>2018-04-17T09:31:34Z</time>
      </trkpt>
      <trkpt lat="49.30761" lon="-0.04132">
        <ele>120</ele>
        <time>2018-04-17T09:31:40Z</time>
      </trkpt>
      <trkpt lat="49.30761" lon="-0.04121">
        <ele>121</ele>
        <time>2018-04-17T09:31:45Z</time>
      </trkpt>
      <trkpt lat="49.30762" lon="-0.0411">
        <ele>121</ele>
        <time>2018-04-17T09:31:50Z</time>
      </trkpt>
      <trkpt lat="49.30764" lon="-0.04105">
        <ele>121</ele>
        <time>2018-04-17T09:31:57Z</time>
      </trkpt>
      <trkpt lat="49.30769" lon="-0.04095">
        <ele>121</ele>
        <time>2018-04-17T09:32:04Z</time>
      </trkpt>
      <trkpt lat="49.30771" lon="-0.04087">
        <ele>121</ele>
        <time>2018-04-17T09:32:11Z</time>
      </trkpt>
      <trkpt lat="49.30773" lon="-0.04076">
        <ele>121</ele>
        <time>2018-04-17T09:32:17Z</time>
      </trkpt>
      <trkpt lat="49.30776" lon="-0.0407">
        <ele>121</ele>
        <time>2018-04-17T09:32:24Z</time>
      </trkpt>
      <trkpt lat="49.30777" lon="-0.04059">
        <ele>121</ele>
        <time>2018-04-17T09:32:29Z</time>
      </trkpt>
      <trkpt lat="49.30778" lon="-0.04047">
        <ele>121</ele>
        <time>2018-04-17T09:32:35Z</time>
      </trkpt>
      <trkpt lat="49.30778" lon="-0.04035">
        <ele>121</ele>
        <time>2018-04-17T09:32:42Z</time>
      </trkpt>
      <trkpt lat="49.30781" lon="-0.04024">
        <ele>121</ele>
        <time>2018-04-17T09:32:49Z</time>
      </trkpt>
      <trkpt lat="49.30783" lon="-0.04013">
        <ele>121</ele>
        <time>2018-04-17T09:32:56Z</time>
      </trkpt>
      <trkpt lat="49.30784" lon="-0.04002">
        <ele>121</ele>
        <time>2018-04-17T09:33:03Z</time>
      </trkpt>
      <trkpt lat="49.30787" lon="-0.0399">
        <ele>121</ele>
        <time>2018-04-17T09:33:09Z</time>
      </trkpt>
      <trkpt lat="49.30787" lon="-0.03979">
        <ele>121</ele>
        <time>2018-04-17T09:33:16Z</time>
      </trkpt>
      <trkpt lat="49.30787" lon="-0.03969">
        <ele>121</ele>
        <time>2018-04-17T09:33:23Z</time>
      </trkpt>
      <trkpt lat="49.30788" lon="-0.03958">
        <ele>122</ele>
        <time>2018-04-17T09:33:30Z</time>
      </trkpt>
      <trkpt lat="49.30787" lon="-0.03954">
        <ele>122</ele>
        <time>2018-04-17T09:33:37Z</time>
      </trkpt>
      <trkpt lat="49.30789" lon="-0.03942">
        <ele>122</ele>
        <time>2018-04-17T09:33:43Z</time>
      </trkpt>
      <trkpt lat="49.3079" lon="-0.0393">
        <ele>122</ele>
        <time>2018-04-17T09:33:50Z</time>
      </trkpt>
      <trkpt lat="49.30792" lon="-0.03921">
        <ele>122</ele>
        <time>2018-04-17T09:33:57Z</time>
      </trkpt>
      <trkpt lat="49.30788" lon="-0.03916">
        <ele>122</ele>
        <time>2018-04-17T09:34:04Z</time>
      </trkpt>
      <trkpt lat="49.30783" lon="-0.03911">
        <ele>122</ele>
        <time>2018-04-17T09:34:11Z</time>
      </trkpt>
      <trkpt lat="49.30782" lon="-0.03913">
        <ele>122</ele>
        <time>2018-04-17T09:34:18Z</time>
      </trkpt>
      <trkpt lat="49.30782" lon="-0.03913">
        <ele>122</ele>
        <time>2018-04-17T09:34:23Z</time>
      </trkpt>
      <trkpt lat="49.30788" lon="-0.03906">
        <ele>122</ele>
        <time>2018-04-17T09:35:18Z</time>
      </trkpt>
      <trkpt lat="49.30789" lon="-0.03893">
        <ele>122</ele>
        <time>2018-04-17T09:35:23Z</time>
      </trkpt>
      <trkpt lat="49.30791" lon="-0.0388">
        <ele>122</ele>
        <time>2018-04-17T09:35:29Z</time>
      </trkpt>
      <trkpt lat="49.30792" lon="-0.03869">
        <ele>122</ele>
        <time>2018-04-17T09:35:34Z</time>
      </trkpt>
      <trkpt lat="49.30795" lon="-0.03858">
        <ele>122</ele>
        <time>2018-04-17T09:35:40Z</time>
      </trkpt>
      <trkpt lat="49.30798" lon="-0.03847">
        <ele>122</ele>
        <time>2018-04-17T09:35:46Z</time>
      </trkpt>
      <trkpt lat="49.30798" lon="-0.03836">
        <ele>122</ele>
        <time>2018-04-17T09:35:52Z</time>
      </trkpt>
      <trkpt lat="49.30797" lon="-0.03825">
        <ele>122</ele>
        <time>2018-04-17T09:35:57Z</time>
      </trkpt>
      <trkpt lat="49.30795" lon="-0.03813">
        <ele>122</ele>
        <time>2018-04-17T09:36:03Z</time>
      </trkpt>
      <trkpt lat="49.30794" lon="-0.038">
        <ele>122</ele>
        <time>2018-04-17T09:36:09Z</time>
      </trkpt>
      <trkpt lat="49.30793" lon="-0.03789">
        <ele>123</ele>
        <time>2018-04-17T09:36:15Z</time>
      </trkpt>
      <trkpt lat="49.30791" lon="-0.03781">
        <ele>123</ele>
        <time>2018-04-17T09:36:22Z</time>
      </trkpt>
      <trkpt lat="49.30788" lon="-0.0377">
        <ele>123</ele>
        <time>2018-04-17T09:36:28Z</time>
      </trkpt>
      <trkpt lat="49.30785" lon="-0.03758">
        <ele>123</ele>
        <time>2018-04-17T09:36:35Z</time>
      </trkpt>
      <trkpt lat="49.30781" lon="-0.03754">
        <ele>123</ele>
        <time>2018-04-17T09:36:42Z</time>
      </trkpt>
      <trkpt lat="49.30778" lon="-0.03747">
        <ele>123</ele>
        <time>2018-04-17T09:36:49Z</time>
      </trkpt>
      <trkpt lat="49.30776" lon="-0.03741">
        <ele>123</ele>
        <time>2018-04-17T09:36:56Z</time>
      </trkpt>
      <trkpt lat="49.30775" lon="-0.03737">
        <ele>123</ele>
        <time>2018-04-17T09:37:03Z</time>
      </trkpt>
      <trkpt lat="49.30775" lon="-0.03737">
        <ele>123</ele>
        <time>2018-04-17T09:37:06Z</time>
      </trkpt>
      <trkpt lat="49.30774" lon="-0.03728">
        <ele>123</ele>
        <time>2018-04-17T09:37:13Z</time>
      </trkpt>
      <trkpt lat="49.30769" lon="-0.03716">
        <ele>123</ele>
        <time>2018-04-17T09:37:20Z</time>
      </trkpt>
      <trkpt lat="49.30767" lon="-0.03706">
        <ele>123</ele>
        <time>2018-04-17T09:37:25Z</time>
      </trkpt>
      <trkpt lat="49.30761" lon="-0.03695">
        <ele>123</ele>
        <time>2018-04-17T09:37:32Z</time>
      </trkpt>
      <trkpt lat="49.30758" lon="-0.03684">
        <ele>123</ele>
        <time>2018-04-17T09:37:39Z</time>
      </trkpt>
      <trkpt lat="49.30754" lon="-0.03675">
        <ele>123</ele>
        <time>2018-04-17T09:37:45Z</time>
      </trkpt>
      <trkpt lat="49.30751" lon="-0.03662">
        <ele>123</ele>
        <time>2018-04-17T09:37:50Z</time>
      </trkpt>
      <trkpt lat="49.30748" lon="-0.03651">
        <ele>124</ele>
        <time>2018-04-17T09:37:57Z</time>
      </trkpt>
      <trkpt lat="49.30745" lon="-0.0364">
        <ele>124</ele>
        <time>2018-04-17T09:38:04Z</time>
      </trkpt>
      <trkpt lat="49.30744" lon="-0.0364">
        <ele>124</ele>
        <time>2018-04-17T09:38:11Z</time>
      </trkpt>
      <trkpt lat="49.30744" lon="-0.03639">
        <ele>124</ele>
        <time>2018-04-17T09:38:12Z</time>
      </trkpt>
      <trkpt lat="49.30752" lon="-0.03634">
        <ele>123</ele>
        <time>2018-04-17T09:38:23Z</time>
      </trkpt>
      <trkpt lat="49.30759" lon="-0.03632">
        <ele>123</ele>
        <time>2018-04-17T09:38:29Z</time>
      </trkpt>
      <trkpt lat="49.30767" lon="-0.03633">
        <ele>123</ele>
        <time>2018-04-17T09:38:35Z</time>
      </trkpt>
      <trkpt lat="49.30773" lon="-0.03636">
        <ele>123</ele>
        <time>2018-04-17T09:38:42Z</time>
      </trkpt>
      <trkpt lat="49.30781" lon="-0.03637">
        <ele>123</ele>
        <time>2018-04-17T09:38:49Z</time>
      </trkpt>
      <trkpt lat="49.30786" lon="-0.03633">
        <ele>123</ele>
        <time>2018-04-17T09:38:56Z</time>
      </trkpt>
      <trkpt lat="49.3079" lon="-0.0363">
        <ele>123</ele>
        <time>2018-04-17T09:39:03Z</time>
      </trkpt>
      <trkpt lat="49.30796" lon="-0.03623">
        <ele>123</ele>
        <time>2018-04-17T09:39:09Z</time>
      </trkpt>
      <trkpt lat="49.30799" lon="-0.03612">
        <ele>123</ele>
        <time>2018-04-17T09:39:16Z</time>
      </trkpt>
      <trkpt lat="49.30803" lon="-0.03605">
        <ele>123</ele>
        <time>2018-04-17T09:39:23Z</time>
      </trkpt>
      <trkpt lat="49.30803" lon="-0.03592">
        <ele>123</ele>
        <time>2018-04-17T09:39:29Z</time>
      </trkpt>
      <trkpt lat="49.30805" lon="-0.0358">
        <ele>124</ele>
        <time>2018-04-17T09:39:36Z</time>
      </trkpt>
      <trkpt lat="49.30805" lon="-0.03569">
        <ele>124</ele>
        <time>2018-04-17T09:39:43Z</time>
      </trkpt>
      <trkpt lat="49.30807" lon="-0.03557">
        <ele>124</ele>
        <time>2018-04-17T09:39:48Z</time>
      </trkpt>
      <trkpt lat="49.30807" lon="-0.03544">
        <ele>124</ele>
        <time>2018-04-17T09:39:54Z</time>
      </trkpt>
      <trkpt lat="49.30811" lon="-0.03533">
        <ele>124</ele>
        <time>2018-04-17T09:39:59Z</time>
      </trkpt>
      <trkpt lat="49.30814" lon="-0.03522">
        <ele>125</ele>
        <time>2018-04-17T09:40:05Z</time>
      </trkpt>
      <trkpt lat="49.30816" lon="-0.03512">
        <ele>125</ele>
        <time>2018-04-17T09:40:12Z</time>
      </trkpt>
      <trkpt lat="49.30818" lon="-0.03503">
        <ele>125</ele>
        <time>2018-04-17T09:40:19Z</time>
      </trkpt>
      <trkpt lat="49.30823" lon="-0.03494">
        <ele>125</ele>
        <time>2018-04-17T09:40:26Z</time>
      </trkpt>
      <trkpt lat="49.30828" lon="-0.03485">
        <ele>125</ele>
        <time>2018-04-17T09:40:33Z</time>
      </trkpt>
      <trkpt lat="49.30834" lon="-0.03478">
        <ele>124</ele>
        <time>2018-04-17T09:40:40Z</time>
      </trkpt>
      <trkpt lat="49.30839" lon="-0.03466">
        <ele>124</ele>
        <time>2018-04-17T09:40:47Z</time>
      </trkpt>
      <trkpt lat="49.30843" lon="-0.03455">
        <ele>124</ele>
        <time>2018-04-17T09:40:53Z</time>
      </trkpt>
      <trkpt lat="49.30847" lon="-0.03446">
        <ele>124</ele>
        <time>2018-04-17T09:40:58Z</time>
      </trkpt>
      <trkpt lat="49.30852" lon="-0.03439">
        <ele>124</ele>
        <time>2018-04-17T09:41:05Z</time>
      </trkpt>
      <trkpt lat="49.30857" lon="-0.03429">
        <ele>124</ele>
        <time>2018-04-17T09:41:12Z</time>
      </trkpt>
      <trkpt lat="49.30861" lon="-0.03421">
        <ele>124</ele>
        <time>2018-04-17T09:41:17Z</time>
      </trkpt>
      <trkpt lat="49.30866" lon="-0.03415">
        <ele>124</ele>
        <time>2018-04-17T09:41:24Z</time>
      </trkpt>
      <trkpt lat="49.30869" lon="-0.0341">
        <ele>124</ele>
        <time>2018-04-17T09:41:31Z</time>
      </trkpt>
      <trkpt lat="49.30873" lon="-0.034">
        <ele>124</ele>
        <time>2018-04-17T09:41:38Z</time>
      </trkpt>
      <trkpt lat="49.30878" lon="-0.0339">
        <ele>124</ele>
        <time>2018-04-17T09:41:44Z</time>
      </trkpt>
      <trkpt lat="49.30882" lon="-0.03381">
        <ele>124</ele>
        <time>2018-04-17T09:41:50Z</time>
      </trkpt>
      <trkpt lat="49.30883" lon="-0.03376">
        <ele>124</ele>
        <time>2018-04-17T09:41:57Z</time>
      </trkpt>
      <trkpt lat="49.30888" lon="-0.03366">
        <ele>124</ele>
        <time>2018-04-17T09:42:03Z</time>
      </trkpt>
      <trkpt lat="49.3089" lon="-0.03356">
        <ele>124</ele>
        <time>2018-04-17T09:42:08Z</time>
      </trkpt>
      <trkpt lat="49.30896" lon="-0.03346">
        <ele>124</ele>
        <time>2018-04-17T09:42:13Z</time>
      </trkpt>
      <trkpt lat="49.30898" lon="-0.03335">
        <ele>124</ele>
        <time>2018-04-17T09:42:19Z</time>
      </trkpt>
      <trkpt lat="49.30902" lon="-0.03326">
        <ele>124</ele>
        <time>2018-04-17T09:42:25Z</time>
      </trkpt>
      <trkpt lat="49.30905" lon="-0.03324">
        <ele>124</ele>
        <time>2018-04-17T09:42:32Z</time>
      </trkpt>
      <trkpt lat="49.30907" lon="-0.03313">
        <ele>125</ele>
        <time>2018-04-17T09:42:37Z</time>
      </trkpt>
      <trkpt lat="49.30913" lon="-0.03304">
        <ele>125</ele>
        <time>2018-04-17T09:42:43Z</time>
      </trkpt>
      <trkpt lat="49.30918" lon="-0.03293">
        <ele>124</ele>
        <time>2018-04-17T09:42:48Z</time>
      </trkpt>
      <trkpt lat="49.30923" lon="-0.03285">
        <ele>124</ele>
        <time>2018-04-17T09:42:54Z</time>
      </trkpt>
      <trkpt lat="49.30924" lon="-0.03281">
        <ele>124</ele>
        <time>2018-04-17T09:43:01Z</time>
      </trkpt>
      <trkpt lat="49.30928" lon="-0.0327">
        <ele>124</ele>
        <time>2018-04-17T09:43:08Z</time>
      </trkpt>
      <trkpt lat="49.30932" lon="-0.03261">
        <ele>124</ele>
        <time>2018-04-17T09:43:15Z</time>
      </trkpt>
      <trkpt lat="49.30935" lon="-0.03252">
        <ele>124</ele>
        <time>2018-04-17T09:43:22Z</time>
      </trkpt>
      <trkpt lat="49.30941" lon="-0.03249">
        <ele>125</ele>
        <time>2018-04-17T09:43:29Z</time>
      </trkpt>
      <trkpt lat="49.30947" lon="-0.03251">
        <ele>124</ele>
        <time>2018-04-17T09:43:36Z</time>
      </trkpt>
      <trkpt lat="49.30955" lon="-0.03255">
        <ele>124</ele>
        <time>2018-04-17T09:43:42Z</time>
      </trkpt>
      <trkpt lat="49.30961" lon="-0.03259">
        <ele>124</ele>
        <time>2018-04-17T09:43:49Z</time>
      </trkpt>
      <trkpt lat="49.30966" lon="-0.03265">
        <ele>124</ele>
        <time>2018-04-17T09:43:55Z</time>
      </trkpt>
      <trkpt lat="49.30974" lon="-0.03272">
        <ele>124</ele>
        <time>2018-04-17T09:44:01Z</time>
      </trkpt>
      <trkpt lat="49.30979" lon="-0.03276">
        <ele>124</ele>
        <time>2018-04-17T09:44:08Z</time>
      </trkpt>
      <trkpt lat="49.30986" lon="-0.03279">
        <ele>124</ele>
        <time>2018-04-17T09:44:13Z</time>
      </trkpt>
      <trkpt lat="49.30992" lon="-0.03286">
        <ele>124</ele>
        <time>2018-04-17T09:44:20Z</time>
      </trkpt>
      <trkpt lat="49.30998" lon="-0.03293">
        <ele>123</ele>
        <time>2018-04-17T09:44:25Z</time>
      </trkpt>
      <trkpt lat="49.31006" lon="-0.033">
        <ele>122</ele>
        <time>2018-04-17T09:44:31Z</time>
      </trkpt>
      <trkpt lat="49.3101" lon="-0.03302">
        <ele>122</ele>
        <time>2018-04-17T09:44:38Z</time>
      </trkpt>
      <trkpt lat="49.31016" lon="-0.03307">
        <ele>122</ele>
        <time>2018-04-17T09:44:45Z</time>
      </trkpt>
      <trkpt lat="49.31024" lon="-0.03307">
        <ele>122</ele>
        <time>2018-04-17T09:44:52Z</time>
      </trkpt>
      <trkpt lat="49.31031" lon="-0.03303">
        <ele>122</ele>
        <time>2018-04-17T09:44:59Z</time>
      </trkpt>
      <trkpt lat="49.31038" lon="-0.03296">
        <ele>122</ele>
        <time>2018-04-17T09:45:05Z</time>
      </trkpt>
      <trkpt lat="49.31045" lon="-0.03291">
        <ele>122</ele>
        <time>2018-04-17T09:45:11Z</time>
      </trkpt>
      <trkpt lat="49.31049" lon="-0.03288">
        <ele>122</ele>
        <time>2018-04-17T09:45:18Z</time>
      </trkpt>
      <trkpt lat="49.31057" lon="-0.03281">
        <ele>122</ele>
        <time>2018-04-17T09:45:24Z</time>
      </trkpt>
      <trkpt lat="49.31064" lon="-0.03276">
        <ele>122</ele>
        <time>2018-04-17T09:45:30Z</time>
      </trkpt>
      <trkpt lat="49.31071" lon="-0.0327">
        <ele>122</ele>
        <time>2018-04-17T09:45:37Z</time>
      </trkpt>
      <trkpt lat="49.31078" lon="-0.03267">
        <ele>122</ele>
        <time>2018-04-17T09:45:44Z</time>
      </trkpt>
      <trkpt lat="49.31085" lon="-0.03263">
        <ele>121</ele>
        <time>2018-04-17T09:45:51Z</time>
      </trkpt>
      <trkpt lat="49.31091" lon="-0.03258">
        <ele>121</ele>
        <time>2018-04-17T09:45:57Z</time>
      </trkpt>
      <trkpt lat="49.31099" lon="-0.03254">
        <ele>121</ele>
        <time>2018-04-17T09:46:04Z</time>
      </trkpt>
      <trkpt lat="49.31103" lon="-0.03245">
        <ele>122</ele>
        <time>2018-04-17T09:46:11Z</time>
      </trkpt>
      <trkpt lat="49.31107" lon="-0.03238">
        <ele>122</ele>
        <time>2018-04-17T09:46:18Z</time>
      </trkpt>
      <trkpt lat="49.31113" lon="-0.03232">
        <ele>122</ele>
        <time>2018-04-17T09:46:24Z</time>
      </trkpt>
      <trkpt lat="49.31117" lon="-0.03222">
        <ele>122</ele>
        <time>2018-04-17T09:46:30Z</time>
      </trkpt>
      <trkpt lat="49.31122" lon="-0.03217">
        <ele>121</ele>
        <time>2018-04-17T09:46:37Z</time>
      </trkpt>
      <trkpt lat="49.31124" lon="-0.03211">
        <ele>122</ele>
        <time>2018-04-17T09:46:44Z</time>
      </trkpt>
      <trkpt lat="49.31125" lon="-0.03208">
        <ele>122</ele>
        <time>2018-04-17T09:46:51Z</time>
      </trkpt>
      <trkpt lat="49.31125" lon="-0.03208">
        <ele>121</ele>
        <time>2018-04-17T09:46:53Z</time>
      </trkpt>
      <trkpt lat="49.31131" lon="-0.032">
        <ele>121</ele>
        <time>2018-04-17T09:47:02Z</time>
      </trkpt>
      <trkpt lat="49.31138" lon="-0.03193">
        <ele>121</ele>
        <time>2018-04-17T09:47:08Z</time>
      </trkpt>
      <trkpt lat="49.31144" lon="-0.03186">
        <ele>121</ele>
        <time>2018-04-17T09:47:15Z</time>
      </trkpt>
      <trkpt lat="49.31148" lon="-0.0318">
        <ele>121</ele>
        <time>2018-04-17T09:47:22Z</time>
      </trkpt>
      <trkpt lat="49.31155" lon="-0.03174">
        <ele>121</ele>
        <time>2018-04-17T09:47:28Z</time>
      </trkpt>
      <trkpt lat="49.31161" lon="-0.03167">
        <ele>121</ele>
        <time>2018-04-17T09:47:35Z</time>
      </trkpt>
      <trkpt lat="49.31165" lon="-0.03161">
        <ele>121</ele>
        <time>2018-04-17T09:47:42Z</time>
      </trkpt>
      <trkpt lat="49.31172" lon="-0.03156">
        <ele>121</ele>
        <time>2018-04-17T09:47:49Z</time>
      </trkpt>
      <trkpt lat="49.31178" lon="-0.03147">
        <ele>121</ele>
        <time>2018-04-17T09:47:55Z</time>
      </trkpt>
      <trkpt lat="49.31184" lon="-0.0314">
        <ele>120</ele>
        <time>2018-04-17T09:48:02Z</time>
      </trkpt>
      <trkpt lat="49.31189" lon="-0.03134">
        <ele>120</ele>
        <time>2018-04-17T09:48:09Z</time>
      </trkpt>
      <trkpt lat="49.31196" lon="-0.03127">
        <ele>120</ele>
        <time>2018-04-17T09:48:15Z</time>
      </trkpt>
      <trkpt lat="49.31201" lon="-0.03122">
        <ele>120</ele>
        <time>2018-04-17T09:48:22Z</time>
      </trkpt>
      <trkpt lat="49.31205" lon="-0.03117">
        <ele>120</ele>
        <time>2018-04-17T09:48:29Z</time>
      </trkpt>
      <trkpt lat="49.31207" lon="-0.03115">
        <ele>120</ele>
        <time>2018-04-17T09:48:36Z</time>
      </trkpt>
      <trkpt lat="49.31214" lon="-0.03111">
        <ele>120</ele>
        <time>2018-04-17T09:48:42Z</time>
      </trkpt>
      <trkpt lat="49.31221" lon="-0.03107">
        <ele>120</ele>
        <time>2018-04-17T09:48:48Z</time>
      </trkpt>
      <trkpt lat="49.31227" lon="-0.03101">
        <ele>120</ele>
        <time>2018-04-17T09:48:54Z</time>
      </trkpt>
      <trkpt lat="49.31235" lon="-0.03097">
        <ele>120</ele>
        <time>2018-04-17T09:49:01Z</time>
      </trkpt>
      <trkpt lat="49.31241" lon="-0.031">
        <ele>120</ele>
        <time>2018-04-17T09:49:07Z</time>
      </trkpt>
      <trkpt lat="49.31248" lon="-0.03104">
        <ele>120</ele>
        <time>2018-04-17T09:49:13Z</time>
      </trkpt>
      <trkpt lat="49.31256" lon="-0.03104">
        <ele>118</ele>
        <time>2018-04-17T09:49:19Z</time>
      </trkpt>
      <trkpt lat="49.31265" lon="-0.03102">
        <ele>118</ele>
        <time>2018-04-17T09:49:25Z</time>
      </trkpt>
      <trkpt lat="49.31269" lon="-0.03092">
        <ele>118</ele>
        <time>2018-04-17T09:49:32Z</time>
      </trkpt>
      <trkpt lat="49.31273" lon="-0.03083">
        <ele>118</ele>
        <time>2018-04-17T09:49:39Z</time>
      </trkpt>
      <trkpt lat="49.31272" lon="-0.03074">
        <ele>118</ele>
        <time>2018-04-17T09:49:46Z</time>
      </trkpt>
      <trkpt lat="49.31275" lon="-0.03063">
        <ele>118</ele>
        <time>2018-04-17T09:49:52Z</time>
      </trkpt>
      <trkpt lat="49.31279" lon="-0.03052">
        <ele>117</ele>
        <time>2018-04-17T09:49:57Z</time>
      </trkpt>
      <trkpt lat="49.3128" lon="-0.03041">
        <ele>117</ele>
        <time>2018-04-17T09:50:03Z</time>
      </trkpt>
      <trkpt lat="49.31283" lon="-0.03029">
        <ele>117</ele>
        <time>2018-04-17T09:50:09Z</time>
      </trkpt>
      <trkpt lat="49.31284" lon="-0.03017">
        <ele>117</ele>
        <time>2018-04-17T09:50:15Z</time>
      </trkpt>
      <trkpt lat="49.31284" lon="-0.03005">
        <ele>118</ele>
        <time>2018-04-17T09:50:21Z</time>
      </trkpt>
      <trkpt lat="49.31284" lon="-0.02993">
        <ele>118</ele>
        <time>2018-04-17T09:50:27Z</time>
      </trkpt>
      <trkpt lat="49.31286" lon="-0.02982">
        <ele>118</ele>
        <time>2018-04-17T09:50:32Z</time>
      </trkpt>
      <trkpt lat="49.31288" lon="-0.02971">
        <ele>118</ele>
        <time>2018-04-17T09:50:39Z</time>
      </trkpt>
      <trkpt lat="49.31289" lon="-0.0296">
        <ele>118</ele>
        <time>2018-04-17T09:50:46Z</time>
      </trkpt>
      <trkpt lat="49.31288" lon="-0.02948">
        <ele>118</ele>
        <time>2018-04-17T09:50:53Z</time>
      </trkpt>
      <trkpt lat="49.31286" lon="-0.02938">
        <ele>119</ele>
        <time>2018-04-17T09:51:00Z</time>
      </trkpt>
      <trkpt lat="49.31284" lon="-0.0293">
        <ele>119</ele>
        <time>2018-04-17T09:51:07Z</time>
      </trkpt>
      <trkpt lat="49.31282" lon="-0.02919">
        <ele>119</ele>
        <time>2018-04-17T09:51:14Z</time>
      </trkpt>
      <trkpt lat="49.31282" lon="-0.02915">
        <ele>120</ele>
        <time>2018-04-17T09:51:21Z</time>
      </trkpt>
      <trkpt lat="49.31283" lon="-0.02915">
        <ele>120</ele>
        <time>2018-04-17T09:51:23Z</time>
      </trkpt>
      <trkpt lat="49.31283" lon="-0.02912">
        <ele>120</ele>
        <time>2018-04-17T09:51:46Z</time>
      </trkpt>
      <trkpt lat="49.31283" lon="-0.02911">
        <ele>120</ele>
        <time>2018-04-17T09:51:47Z</time>
      </trkpt>
      <trkpt lat="49.31284" lon="-0.02904">
        <ele>120</ele>
        <time>2018-04-17T09:52:12Z</time>
      </trkpt>
      <trkpt lat="49.31284" lon="-0.02903">
        <ele>120</ele>
        <time>2018-04-17T09:52:17Z</time>
      </trkpt>
      <trkpt lat="49.31284" lon="-0.02899">
        <ele>120</ele>
        <time>2018-04-17T09:52:25Z</time>
      </trkpt>
      <trkpt lat="49.31282" lon="-0.02891">
        <ele>120</ele>
        <time>2018-04-17T09:52:32Z</time>
      </trkpt>
      <trkpt lat="49.3128" lon="-0.02881">
        <ele>120</ele>
        <time>2018-04-17T09:52:39Z</time>
      </trkpt>
      <trkpt lat="49.3128" lon="-0.0287">
        <ele>120</ele>
        <time>2018-04-17T09:52:46Z</time>
      </trkpt>
      <trkpt lat="49.31279" lon="-0.02859">
        <ele>120</ele>
        <time>2018-04-17T09:52:53Z</time>
      </trkpt>
      <trkpt lat="49.31277" lon="-0.02847">
        <ele>120</ele>
        <time>2018-04-17T09:52:59Z</time>
      </trkpt>
      <trkpt lat="49.31277" lon="-0.02835">
        <ele>121</ele>
        <time>2018-04-17T09:53:05Z</time>
      </trkpt>
      <trkpt lat="49.31277" lon="-0.02823">
        <ele>121</ele>
        <time>2018-04-17T09:53:11Z</time>
      </trkpt>
      <trkpt lat="49.31279" lon="-0.02812">
        <ele>121</ele>
        <time>2018-04-17T09:53:17Z</time>
      </trkpt>
      <trkpt lat="49.31279" lon="-0.028">
        <ele>121</ele>
        <time>2018-04-17T09:53:24Z</time>
      </trkpt>
      <trkpt lat="49.31282" lon="-0.02789">
        <ele>121</ele>
        <time>2018-04-17T09:53:29Z</time>
      </trkpt>
      <trkpt lat="49.31285" lon="-0.02779">
        <ele>121</ele>
        <time>2018-04-17T09:53:35Z</time>
      </trkpt>
      <trkpt lat="49.31288" lon="-0.02769">
        <ele>121</ele>
        <time>2018-04-17T09:53:42Z</time>
      </trkpt>
      <trkpt lat="49.3129" lon="-0.02759">
        <ele>121</ele>
        <time>2018-04-17T09:53:49Z</time>
      </trkpt>
      <trkpt lat="49.3129" lon="-0.02758">
        <ele>121</ele>
        <time>2018-04-17T09:53:56Z</time>
      </trkpt>
      <trkpt lat="49.31292" lon="-0.02749">
        <ele>122</ele>
        <time>2018-04-17T09:54:08Z</time>
      </trkpt>
      <trkpt lat="49.31293" lon="-0.02738">
        <ele>122</ele>
        <time>2018-04-17T09:54:15Z</time>
      </trkpt>
      <trkpt lat="49.31297" lon="-0.02733">
        <ele>122</ele>
        <time>2018-04-17T09:54:22Z</time>
      </trkpt>
      <trkpt lat="49.313" lon="-0.02724">
        <ele>122</ele>
        <time>2018-04-17T09:54:29Z</time>
      </trkpt>
      <trkpt lat="49.31305" lon="-0.02718">
        <ele>122</ele>
        <time>2018-04-17T09:54:36Z</time>
      </trkpt>
      <trkpt lat="49.31309" lon="-0.02707">
        <ele>122</ele>
        <time>2018-04-17T09:54:43Z</time>
      </trkpt>
      <trkpt lat="49.31312" lon="-0.02703">
        <ele>122</ele>
        <time>2018-04-17T09:54:50Z</time>
      </trkpt>
      <trkpt lat="49.31317" lon="-0.02692">
        <ele>121</ele>
        <time>2018-04-17T09:54:57Z</time>
      </trkpt>
      <trkpt lat="49.31319" lon="-0.02682">
        <ele>121</ele>
        <time>2018-04-17T09:55:04Z</time>
      </trkpt>
      <trkpt lat="49.31321" lon="-0.02672">
        <ele>121</ele>
        <time>2018-04-17T09:55:11Z</time>
      </trkpt>
      <trkpt lat="49.31325" lon="-0.02662">
        <ele>121</ele>
        <time>2018-04-17T09:55:18Z</time>
      </trkpt>
      <trkpt lat="49.31327" lon="-0.02655">
        <ele>121</ele>
        <time>2018-04-17T09:55:25Z</time>
      </trkpt>
      <trkpt lat="49.31328" lon="-0.02652">
        <ele>121</ele>
        <time>2018-04-17T09:55:32Z</time>
      </trkpt>
      <trkpt lat="49.31328" lon="-0.02652">
        <ele>121</ele>
        <time>2018-04-17T09:55:33Z</time>
      </trkpt>
      <trkpt lat="49.31329" lon="-0.02649">
        <ele>122</ele>
        <time>2018-04-17T09:55:41Z</time>
      </trkpt>
      <trkpt lat="49.31329" lon="-0.02648">
        <ele>122</ele>
        <time>2018-04-17T09:55:43Z</time>
      </trkpt>
      <trkpt lat="49.3133" lon="-0.02648">
        <ele>122</ele>
        <time>2018-04-17T09:55:51Z</time>
      </trkpt>
      <trkpt lat="49.3133" lon="-0.02648">
        <ele>122</ele>
        <time>2018-04-17T09:55:52Z</time>
      </trkpt>
      <trkpt lat="49.31333" lon="-0.02645">
        <ele>122</ele>
        <time>2018-04-17T09:56:12Z</time>
      </trkpt>
      <trkpt lat="49.31333" lon="-0.02645">
        <ele>122</ele>
        <time>2018-04-17T09:56:18Z</time>
      </trkpt>
      <trkpt lat="49.31332" lon="-0.02641">
        <ele>122</ele>
        <time>2018-04-17T09:56:32Z</time>
      </trkpt>
      <trkpt lat="49.31333" lon="-0.02641">
        <ele>122</ele>
        <time>2018-04-17T09:56:39Z</time>
      </trkpt>
      <trkpt lat="49.31335" lon="-0.02639">
        <ele>120</ele>
        <time>2018-04-17T09:56:47Z</time>
      </trkpt>
      <trkpt lat="49.31335" lon="-0.02637">
        <ele>120</ele>
        <time>2018-04-17T09:56:51Z</time>
      </trkpt>
      <trkpt lat="49.31337" lon="-0.02634">
        <ele>120</ele>
        <time>2018-04-17T09:56:59Z</time>
      </trkpt>
      <trkpt lat="49.31336" lon="-0.02632">
        <ele>120</ele>
        <time>2018-04-17T09:57:06Z</time>
      </trkpt>
      <trkpt lat="49.31335" lon="-0.02632">
        <ele>120</ele>
        <time>2018-04-17T09:57:10Z</time>
      </trkpt>
      <trkpt lat="49.31336" lon="-0.0263">
        <ele>120</ele>
        <time>2018-04-17T09:57:26Z</time>
      </trkpt>
      <trkpt lat="49.31336" lon="-0.0263">
        <ele>120</ele>
        <time>2018-04-17T09:57:27Z</time>
      </trkpt>
      <trkpt lat="49.31336" lon="-0.02622">
        <ele>120</ele>
        <time>2018-04-17T09:57:34Z</time>
      </trkpt>
      <trkpt lat="49.31338" lon="-0.0262">
        <ele>120</ele>
        <time>2018-04-17T09:57:41Z</time>
      </trkpt>
      <trkpt lat="49.31338" lon="-0.02619">
        <ele>120</ele>
        <time>2018-04-17T09:57:43Z</time>
      </trkpt>
      <trkpt lat="49.31334" lon="-0.02618">
        <ele>121</ele>
        <time>2018-04-17T09:58:07Z</time>
      </trkpt>
      <trkpt lat="49.31329" lon="-0.02616">
        <ele>122</ele>
        <time>2018-04-17T09:58:14Z</time>
      </trkpt>
      <trkpt lat="49.31324" lon="-0.02611">
        <ele>122</ele>
        <time>2018-04-17T09:58:21Z</time>
      </trkpt>
      <trkpt lat="49.31321" lon="-0.02611">
        <ele>122</ele>
        <time>2018-04-17T09:58:28Z</time>
      </trkpt>
      <trkpt lat="49.31313" lon="-0.02608">
        <ele>122</ele>
        <time>2018-04-17T09:58:35Z</time>
      </trkpt>
      <trkpt lat="49.31305" lon="-0.02604">
        <ele>122</ele>
        <time>2018-04-17T09:58:42Z</time>
      </trkpt>
      <trkpt lat="49.31301" lon="-0.02602">
        <ele>122</ele>
        <time>2018-04-17T09:58:49Z</time>
      </trkpt>
      <trkpt lat="49.31295" lon="-0.02599">
        <ele>122</ele>
        <time>2018-04-17T09:58:56Z</time>
      </trkpt>
      <trkpt lat="49.31288" lon="-0.02596">
        <ele>122</ele>
        <time>2018-04-17T09:59:03Z</time>
      </trkpt>
      <trkpt lat="49.31282" lon="-0.02593">
        <ele>122</ele>
        <time>2018-04-17T09:59:10Z</time>
      </trkpt>
      <trkpt lat="49.31274" lon="-0.0259">
        <ele>122</ele>
        <time>2018-04-17T09:59:17Z</time>
      </trkpt>
      <trkpt lat="49.31267" lon="-0.02589">
        <ele>122</ele>
        <time>2018-04-17T09:59:24Z</time>
      </trkpt>
      <trkpt lat="49.3126" lon="-0.02586">
        <ele>123</ele>
        <time>2018-04-17T09:59:31Z</time>
      </trkpt>
      <trkpt lat="49.31255" lon="-0.02579">
        <ele>123</ele>
        <time>2018-04-17T09:59:38Z</time>
      </trkpt>
      <trkpt lat="49.31248" lon="-0.02575">
        <ele>123</ele>
        <time>2018-04-17T09:59:44Z</time>
      </trkpt>
      <trkpt lat="49.31245" lon="-0.02567">
        <ele>123</ele>
        <time>2018-04-17T09:59:51Z</time>
      </trkpt>
      <trkpt lat="49.31246" lon="-0.02569">
        <ele>123</ele>
        <time>2018-04-17T09:59:58Z</time>
      </trkpt>
      <trkpt lat="49.31246" lon="-0.02569">
        <ele>123</ele>
        <time>2018-04-17T09:59:59Z</time>
      </trkpt>
      <trkpt lat="49.31245" lon="-0.02567">
        <ele>123</ele>
        <time>2018-04-17T10:00:06Z</time>
      </trkpt>
      <trkpt lat="49.31246" lon="-0.02558">
        <ele>123</ele>
        <time>2018-04-17T10:00:13Z</time>
      </trkpt>
      <trkpt lat="49.31248" lon="-0.02546">
        <ele>123</ele>
        <time>2018-04-17T10:00:19Z</time>
      </trkpt>
      <trkpt lat="49.31248" lon="-0.02537">
        <ele>123</ele>
        <time>2018-04-17T10:00:26Z</time>
      </trkpt>
      <trkpt lat="49.3125" lon="-0.02527">
        <ele>123</ele>
        <time>2018-04-17T10:00:33Z</time>
      </trkpt>
      <trkpt lat="49.3125" lon="-0.02515">
        <ele>123</ele>
        <time>2018-04-17T10:00:38Z</time>
      </trkpt>
      <trkpt lat="49.31251" lon="-0.02504">
        <ele>123</ele>
        <time>2018-04-17T10:00:43Z</time>
      </trkpt>
      <trkpt lat="49.31253" lon="-0.02493">
        <ele>123</ele>
        <time>2018-04-17T10:00:49Z</time>
      </trkpt>
      <trkpt lat="49.31253" lon="-0.02486">
        <ele>122</ele>
        <time>2018-04-17T10:00:56Z</time>
      </trkpt>
      <trkpt lat="49.31254" lon="-0.02474">
        <ele>122</ele>
        <time>2018-04-17T10:01:02Z</time>
      </trkpt>
      <trkpt lat="49.31257" lon="-0.02465">
        <ele>122</ele>
        <time>2018-04-17T10:01:09Z</time>
      </trkpt>
      <trkpt lat="49.3126" lon="-0.02453">
        <ele>122</ele>
        <time>2018-04-17T10:01:15Z</time>
      </trkpt>
      <trkpt lat="49.31262" lon="-0.02441">
        <ele>122</ele>
        <time>2018-04-17T10:01:20Z</time>
      </trkpt>
      <trkpt lat="49.31264" lon="-0.02428">
        <ele>122</ele>
        <time>2018-04-17T10:01:26Z</time>
      </trkpt>
      <trkpt lat="49.31267" lon="-0.02418">
        <ele>122</ele>
        <time>2018-04-17T10:01:32Z</time>
      </trkpt>
      <trkpt lat="49.31271" lon="-0.02408">
        <ele>122</ele>
        <time>2018-04-17T10:01:37Z</time>
      </trkpt>
      <trkpt lat="49.31275" lon="-0.02397">
        <ele>122</ele>
        <time>2018-04-17T10:01:44Z</time>
      </trkpt>
      <trkpt lat="49.3128" lon="-0.02385">
        <ele>121</ele>
        <time>2018-04-17T10:01:49Z</time>
      </trkpt>
      <trkpt lat="49.3128" lon="-0.02382">
        <ele>121</ele>
        <time>2018-04-17T10:01:56Z</time>
      </trkpt>
      <trkpt lat="49.3128" lon="-0.02383">
        <ele>121</ele>
        <time>2018-04-17T10:01:59Z</time>
      </trkpt>
      <trkpt lat="49.31283" lon="-0.02373">
        <ele>121</ele>
        <time>2018-04-17T10:02:16Z</time>
      </trkpt>
      <trkpt lat="49.31286" lon="-0.02364">
        <ele>121</ele>
        <time>2018-04-17T10:02:23Z</time>
      </trkpt>
      <trkpt lat="49.31287" lon="-0.02352">
        <ele>121</ele>
        <time>2018-04-17T10:02:30Z</time>
      </trkpt>
      <trkpt lat="49.31288" lon="-0.0234">
        <ele>121</ele>
        <time>2018-04-17T10:02:37Z</time>
      </trkpt>
      <trkpt lat="49.31289" lon="-0.02328">
        <ele>121</ele>
        <time>2018-04-17T10:02:43Z</time>
      </trkpt>
      <trkpt lat="49.3129" lon="-0.02317">
        <ele>121</ele>
        <time>2018-04-17T10:02:49Z</time>
      </trkpt>
      <trkpt lat="49.31293" lon="-0.02306">
        <ele>121</ele>
        <time>2018-04-17T10:02:55Z</time>
      </trkpt>
      <trkpt lat="49.31293" lon="-0.02294">
        <ele>121</ele>
        <time>2018-04-17T10:03:02Z</time>
      </trkpt>
      <trkpt lat="49.31296" lon="-0.02282">
        <ele>121</ele>
        <time>2018-04-17T10:03:08Z</time>
      </trkpt>
      <trkpt lat="49.31298" lon="-0.02271">
        <ele>121</ele>
        <time>2018-04-17T10:03:14Z</time>
      </trkpt>
      <trkpt lat="49.31299" lon="-0.02265">
        <ele>121</ele>
        <time>2018-04-17T10:03:21Z</time>
      </trkpt>
      <trkpt lat="49.31301" lon="-0.02256">
        <ele>121</ele>
        <time>2018-04-17T10:03:28Z</time>
      </trkpt>
      <trkpt lat="49.31305" lon="-0.02247">
        <ele>121</ele>
        <time>2018-04-17T10:03:34Z</time>
      </trkpt>
      <trkpt lat="49.31307" lon="-0.02236">
        <ele>121</ele>
        <time>2018-04-17T10:03:40Z</time>
      </trkpt>
      <trkpt lat="49.3131" lon="-0.02226">
        <ele>121</ele>
        <time>2018-04-17T10:03:45Z</time>
      </trkpt>
      <trkpt lat="49.31314" lon="-0.02214">
        <ele>120</ele>
        <time>2018-04-17T10:03:50Z</time>
      </trkpt>
      <trkpt lat="49.31317" lon="-0.02203">
        <ele>120</ele>
        <time>2018-04-17T10:03:56Z</time>
      </trkpt>
      <trkpt lat="49.31318" lon="-0.02192">
        <ele>120</ele>
        <time>2018-04-17T10:04:03Z</time>
      </trkpt>
      <trkpt lat="49.31325" lon="-0.02188">
        <ele>120</ele>
        <time>2018-04-17T10:04:09Z</time>
      </trkpt>
      <trkpt lat="49.31333" lon="-0.02187">
        <ele>120</ele>
        <time>2018-04-17T10:04:14Z</time>
      </trkpt>
      <trkpt lat="49.31338" lon="-0.02186">
        <ele>119</ele>
        <time>2018-04-17T10:04:21Z</time>
      </trkpt>
      <trkpt lat="49.31347" lon="-0.02184">
        <ele>119</ele>
        <time>2018-04-17T10:04:28Z</time>
      </trkpt>
      <trkpt lat="49.31354" lon="-0.02186">
        <ele>119</ele>
        <time>2018-04-17T10:04:35Z</time>
      </trkpt>
      <trkpt lat="49.31362" lon="-0.0219">
        <ele>119</ele>
        <time>2018-04-17T10:04:40Z</time>
      </trkpt>
      <trkpt lat="49.31371" lon="-0.02192">
        <ele>119</ele>
        <time>2018-04-17T10:04:45Z</time>
      </trkpt>
      <trkpt lat="49.31377" lon="-0.02193">
        <ele>119</ele>
        <time>2018-04-17T10:04:52Z</time>
      </trkpt>
      <trkpt lat="49.31376" lon="-0.02189">
        <ele>119</ele>
        <time>2018-04-17T10:04:59Z</time>
      </trkpt>
      <trkpt lat="49.31377" lon="-0.02189">
        <ele>119</ele>
        <time>2018-04-17T10:05:04Z</time>
      </trkpt>
      <trkpt lat="49.31376" lon="-0.02188">
        <ele>119</ele>
        <time>2018-04-17T10:05:13Z</time>
      </trkpt>
      <trkpt lat="49.31376" lon="-0.02188">
        <ele>119</ele>
        <time>2018-04-17T10:05:14Z</time>
      </trkpt>
      <trkpt lat="49.31376" lon="-0.02186">
        <ele>119</ele>
        <time>2018-04-17T10:05:27Z</time>
      </trkpt>
      <trkpt lat="49.31376" lon="-0.02186">
        <ele>119</ele>
        <time>2018-04-17T10:05:28Z</time>
      </trkpt>
      <trkpt lat="49.31373" lon="-0.02186">
        <ele>119</ele>
        <time>2018-04-17T10:05:56Z</time>
      </trkpt>
      <trkpt lat="49.31372" lon="-0.02184">
        <ele>119</ele>
        <time>2018-04-17T10:06:03Z</time>
      </trkpt>
      <trkpt lat="49.31372" lon="-0.02184">
        <ele>119</ele>
        <time>2018-04-17T10:06:18Z</time>
      </trkpt>
      <trkpt lat="49.31372" lon="-0.02186">
        <ele>119</ele>
        <time>2018-04-17T10:06:19Z</time>
      </trkpt>
      <trkpt lat="49.3137" lon="-0.02187">
        <ele>119</ele>
        <time>2018-04-17T10:06:28Z</time>
      </trkpt>
      <trkpt lat="49.3137" lon="-0.02187">
        <ele>119</ele>
        <time>2018-04-17T10:06:29Z</time>
      </trkpt>
      <trkpt lat="49.31369" lon="-0.02188">
        <ele>119</ele>
        <time>2018-04-17T10:06:39Z</time>
      </trkpt>
      <trkpt lat="49.31369" lon="-0.02188">
        <ele>119</ele>
        <time>2018-04-17T10:06:40Z</time>
      </trkpt>
      <trkpt lat="49.31363" lon="-0.02189">
        <ele>119</ele>
        <time>2018-04-17T10:06:51Z</time>
      </trkpt>
      <trkpt lat="49.31356" lon="-0.02186">
        <ele>119</ele>
        <time>2018-04-17T10:06:56Z</time>
      </trkpt>
      <trkpt lat="49.31349" lon="-0.02186">
        <ele>119</ele>
        <time>2018-04-17T10:07:01Z</time>
      </trkpt>
      <trkpt lat="49.31341" lon="-0.02186">
        <ele>119</ele>
        <time>2018-04-17T10:07:06Z</time>
      </trkpt>
      <trkpt lat="49.31333" lon="-0.02188">
        <ele>120</ele>
        <time>2018-04-17T10:07:13Z</time>
      </trkpt>
      <trkpt lat="49.31325" lon="-0.02188">
        <ele>120</ele>
        <time>2018-04-17T10:07:18Z</time>
      </trkpt>
      <trkpt lat="49.31319" lon="-0.02188">
        <ele>120</ele>
        <time>2018-04-17T10:07:25Z</time>
      </trkpt>
      <trkpt lat="49.31318" lon="-0.02176">
        <ele>120</ele>
        <time>2018-04-17T10:07:31Z</time>
      </trkpt>
      <trkpt lat="49.31321" lon="-0.02165">
        <ele>119</ele>
        <time>2018-04-17T10:07:36Z</time>
      </trkpt>
      <trkpt lat="49.31324" lon="-0.02153">
        <ele>119</ele>
        <time>2018-04-17T10:07:42Z</time>
      </trkpt>
      <trkpt lat="49.31325" lon="-0.02141">
        <ele>119</ele>
        <time>2018-04-17T10:07:48Z</time>
      </trkpt>
      <trkpt lat="49.31325" lon="-0.02127">
        <ele>119</ele>
        <time>2018-04-17T10:07:54Z</time>
      </trkpt>
      <trkpt lat="49.31322" lon="-0.02117">
        <ele>119</ele>
        <time>2018-04-17T10:08:00Z</time>
      </trkpt>
      <trkpt lat="49.3132" lon="-0.02111">
        <ele>119</ele>
        <time>2018-04-17T10:08:07Z</time>
      </trkpt>
      <trkpt lat="49.31315" lon="-0.02103">
        <ele>119</ele>
        <time>2018-04-17T10:08:14Z</time>
      </trkpt>
      <trkpt lat="49.31308" lon="-0.02096">
        <ele>119</ele>
        <time>2018-04-17T10:08:21Z</time>
      </trkpt>
      <trkpt lat="49.31305" lon="-0.02091">
        <ele>119</ele>
        <time>2018-04-17T10:08:28Z</time>
      </trkpt>
      <trkpt lat="49.31298" lon="-0.02084">
        <ele>120</ele>
        <time>2018-04-17T10:08:35Z</time>
      </trkpt>
      <trkpt lat="49.31294" lon="-0.02079">
        <ele>119</ele>
        <time>2018-04-17T10:08:42Z</time>
      </trkpt>
      <trkpt lat="49.31288" lon="-0.02073">
        <ele>120</ele>
        <time>2018-04-17T10:08:48Z</time>
      </trkpt>
      <trkpt lat="49.31283" lon="-0.02066">
        <ele>120</ele>
        <time>2018-04-17T10:08:55Z</time>
      </trkpt>
      <trkpt lat="49.31276" lon="-0.02062">
        <ele>120</ele>
        <time>2018-04-17T10:09:02Z</time>
      </trkpt>
      <trkpt lat="49.31268" lon="-0.02057">
        <ele>120</ele>
        <time>2018-04-17T10:09:08Z</time>
      </trkpt>
      <trkpt lat="49.31261" lon="-0.02053">
        <ele>120</ele>
        <time>2018-04-17T10:09:14Z</time>
      </trkpt>
      <trkpt lat="49.31253" lon="-0.02047">
        <ele>120</ele>
        <time>2018-04-17T10:09:19Z</time>
      </trkpt>
      <trkpt lat="49.31249" lon="-0.02043">
        <ele>122</ele>
        <time>2018-04-17T10:09:26Z</time>
      </trkpt>
      <trkpt lat="49.31243" lon="-0.02039">
        <ele>121</ele>
        <time>2018-04-17T10:09:33Z</time>
      </trkpt>
      <trkpt lat="49.31235" lon="-0.02035">
        <ele>121</ele>
        <time>2018-04-17T10:09:40Z</time>
      </trkpt>
      <trkpt lat="49.31231" lon="-0.02032">
        <ele>121</ele>
        <time>2018-04-17T10:09:47Z</time>
      </trkpt>
      <trkpt lat="49.31224" lon="-0.02031">
        <ele>121</ele>
        <time>2018-04-17T10:09:53Z</time>
      </trkpt>
      <trkpt lat="49.31217" lon="-0.02027">
        <ele>121</ele>
        <time>2018-04-17T10:09:58Z</time>
      </trkpt>
      <trkpt lat="49.31209" lon="-0.02023">
        <ele>121</ele>
        <time>2018-04-17T10:10:03Z</time>
      </trkpt>
      <trkpt lat="49.31207" lon="-0.02023">
        <ele>121</ele>
        <time>2018-04-17T10:10:10Z</time>
      </trkpt>
      <trkpt lat="49.31199" lon="-0.02023">
        <ele>121</ele>
        <time>2018-04-17T10:10:17Z</time>
      </trkpt>
      <trkpt lat="49.31198" lon="-0.02023">
        <ele>121</ele>
        <time>2018-04-17T10:10:24Z</time>
      </trkpt>
      <trkpt lat="49.31197" lon="-0.02021">
        <ele>121</ele>
        <time>2018-04-17T10:10:33Z</time>
      </trkpt>
      <trkpt lat="49.31197" lon="-0.02021">
        <ele>121</ele>
        <time>2018-04-17T10:10:34Z</time>
      </trkpt>
      <trkpt lat="49.31196" lon="-0.02019">
        <ele>121</ele>
        <time>2018-04-17T10:10:56Z</time>
      </trkpt>
      <trkpt lat="49.31189" lon="-0.02018">
        <ele>121</ele>
        <time>2018-04-17T10:11:03Z</time>
      </trkpt>
      <trkpt lat="49.31181" lon="-0.02016">
        <ele>121</ele>
        <time>2018-04-17T10:11:09Z</time>
      </trkpt>
      <trkpt lat="49.31174" lon="-0.02014">
        <ele>121</ele>
        <time>2018-04-17T10:11:16Z</time>
      </trkpt>
      <trkpt lat="49.31167" lon="-0.02013">
        <ele>121</ele>
        <time>2018-04-17T10:11:23Z</time>
      </trkpt>
      <trkpt lat="49.31159" lon="-0.0201">
        <ele>121</ele>
        <time>2018-04-17T10:11:28Z</time>
      </trkpt>
      <trkpt lat="49.31151" lon="-0.02009">
        <ele>122</ele>
        <time>2018-04-17T10:11:34Z</time>
      </trkpt>
      <trkpt lat="49.31144" lon="-0.02009">
        <ele>122</ele>
        <time>2018-04-17T10:11:40Z</time>
      </trkpt>
      <trkpt lat="49.31138" lon="-0.02007">
        <ele>122</ele>
        <time>2018-04-17T10:11:47Z</time>
      </trkpt>
      <trkpt lat="49.31138" lon="-0.02006">
        <ele>122</ele>
        <time>2018-04-17T10:11:51Z</time>
      </trkpt>
      <trkpt lat="49.31139" lon="-0.02006">
        <ele>122</ele>
        <time>2018-04-17T10:11:59Z</time>
      </trkpt>
      <trkpt lat="49.31139" lon="-0.02006">
        <ele>122</ele>
        <time>2018-04-17T10:12:00Z</time>
      </trkpt>
      <trkpt lat="49.31138" lon="-0.02005">
        <ele>122</ele>
        <time>2018-04-17T10:12:11Z</time>
      </trkpt>
      <trkpt lat="49.31138" lon="-0.02005">
        <ele>122</ele>
        <time>2018-04-17T10:12:11Z</time>
      </trkpt>
      <trkpt lat="49.31133" lon="-0.02004">
        <ele>122</ele>
        <time>2018-04-17T10:12:39Z</time>
      </trkpt>
      <trkpt lat="49.31127" lon="-0.02006">
        <ele>122</ele>
        <time>2018-04-17T10:12:46Z</time>
      </trkpt>
      <trkpt lat="49.3112" lon="-0.02004">
        <ele>122</ele>
        <time>2018-04-17T10:12:52Z</time>
      </trkpt>
      <trkpt lat="49.31117" lon="-0.02004">
        <ele>122</ele>
        <time>2018-04-17T10:12:59Z</time>
      </trkpt>
      <trkpt lat="49.31109" lon="-0.02003">
        <ele>122</ele>
        <time>2018-04-17T10:13:04Z</time>
      </trkpt>
      <trkpt lat="49.311" lon="-0.01999">
        <ele>121</ele>
        <time>2018-04-17T10:13:09Z</time>
      </trkpt>
      <trkpt lat="49.31092" lon="-0.01999">
        <ele>122</ele>
        <time>2018-04-17T10:13:14Z</time>
      </trkpt>
      <trkpt lat="49.31085" lon="-0.02">
        <ele>122</ele>
        <time>2018-04-17T10:13:19Z</time>
      </trkpt>
      <trkpt lat="49.31077" lon="-0.02">
        <ele>122</ele>
        <time>2018-04-17T10:13:26Z</time>
      </trkpt>
      <trkpt lat="49.31069" lon="-0.01999">
        <ele>122</ele>
        <time>2018-04-17T10:13:32Z</time>
      </trkpt>
      <trkpt lat="49.31062" lon="-0.01993">
        <ele>122</ele>
        <time>2018-04-17T10:13:38Z</time>
      </trkpt>
      <trkpt lat="49.31055" lon="-0.0199">
        <ele>122</ele>
        <time>2018-04-17T10:13:43Z</time>
      </trkpt>
      <trkpt lat="49.31047" lon="-0.01986">
        <ele>122</ele>
        <time>2018-04-17T10:13:47Z</time>
      </trkpt>
      <trkpt lat="49.3104" lon="-0.01985">
        <ele>122</ele>
        <time>2018-04-17T10:13:53Z</time>
      </trkpt>
      <trkpt lat="49.31032" lon="-0.01983">
        <ele>122</ele>
        <time>2018-04-17T10:13:59Z</time>
      </trkpt>
      <trkpt lat="49.31023" lon="-0.01981">
        <ele>122</ele>
        <time>2018-04-17T10:14:04Z</time>
      </trkpt>
      <trkpt lat="49.31015" lon="-0.0198">
        <ele>122</ele>
        <time>2018-04-17T10:14:09Z</time>
      </trkpt>
      <trkpt lat="49.31008" lon="-0.01976">
        <ele>122</ele>
        <time>2018-04-17T10:14:14Z</time>
      </trkpt>
      <trkpt lat="49.31001" lon="-0.01968">
        <ele>122</ele>
        <time>2018-04-17T10:14:20Z</time>
      </trkpt>
      <trkpt lat="49.31001" lon="-0.01958">
        <ele>122</ele>
        <time>2018-04-17T10:14:27Z</time>
      </trkpt>
      <trkpt lat="49.31001" lon="-0.01957">
        <ele>122</ele>
        <time>2018-04-17T10:14:33Z</time>
      </trkpt>
      <trkpt lat="49.31006" lon="-0.01953">
        <ele>122</ele>
        <time>2018-04-17T10:14:46Z</time>
      </trkpt>
      <trkpt lat="49.31011" lon="-0.0195">
        <ele>122</ele>
        <time>2018-04-17T10:14:53Z</time>
      </trkpt>
      <trkpt lat="49.31019" lon="-0.0195">
        <ele>122</ele>
        <time>2018-04-17T10:14:59Z</time>
      </trkpt>
      <trkpt lat="49.31027" lon="-0.01948">
        <ele>121</ele>
        <time>2018-04-17T10:15:04Z</time>
      </trkpt>
      <trkpt lat="49.31034" lon="-0.01946">
        <ele>121</ele>
        <time>2018-04-17T10:15:10Z</time>
      </trkpt>
      <trkpt lat="49.31041" lon="-0.01941">
        <ele>121</ele>
        <time>2018-04-17T10:15:15Z</time>
      </trkpt>
      <trkpt lat="49.31047" lon="-0.01938">
        <ele>121</ele>
        <time>2018-04-17T10:15:22Z</time>
      </trkpt>
      <trkpt lat="49.31054" lon="-0.01932">
        <ele>121</ele>
        <time>2018-04-17T10:15:29Z</time>
      </trkpt>
      <trkpt lat="49.3106" lon="-0.01931">
        <ele>121</ele>
        <time>2018-04-17T10:15:36Z</time>
      </trkpt>
      <trkpt lat="49.31067" lon="-0.01929">
        <ele>121</ele>
        <time>2018-04-17T10:15:41Z</time>
      </trkpt>
      <trkpt lat="49.31074" lon="-0.01925">
        <ele>121</ele>
        <time>2018-04-17T10:15:45Z</time>
      </trkpt>
      <trkpt lat="49.3108" lon="-0.01919">
        <ele>120</ele>
        <time>2018-04-17T10:15:50Z</time>
      </trkpt>
      <trkpt lat="49.31087" lon="-0.01912">
        <ele>119</ele>
        <time>2018-04-17T10:15:54Z</time>
      </trkpt>
      <trkpt lat="49.31094" lon="-0.01907">
        <ele>119</ele>
        <time>2018-04-17T10:16:01Z</time>
      </trkpt>
      <trkpt lat="49.311" lon="-0.01898">
        <ele>118</ele>
        <time>2018-04-17T10:16:08Z</time>
      </trkpt>
      <trkpt lat="49.31105" lon="-0.01889">
        <ele>118</ele>
        <time>2018-04-17T10:16:14Z</time>
      </trkpt>
      <trkpt lat="49.3111" lon="-0.01879">
        <ele>117</ele>
        <time>2018-04-17T10:16:19Z</time>
      </trkpt>
      <trkpt lat="49.31114" lon="-0.01869">
        <ele>117</ele>
        <time>2018-04-17T10:16:25Z</time>
      </trkpt>
      <trkpt lat="49.31117" lon="-0.01857">
        <ele>117</ele>
        <time>2018-04-17T10:16:32Z</time>
      </trkpt>
      <trkpt lat="49.31121" lon="-0.01847">
        <ele>117</ele>
        <time>2018-04-17T10:16:39Z</time>
      </trkpt>
      <trkpt lat="49.31127" lon="-0.01839">
        <ele>116</ele>
        <time>2018-04-17T10:16:46Z</time>
      </trkpt>
      <trkpt lat="49.31134" lon="-0.01831">
        <ele>114</ele>
        <time>2018-04-17T10:16:52Z</time>
      </trkpt>
      <trkpt lat="49.31138" lon="-0.01821">
        <ele>114</ele>
        <time>2018-04-17T10:16:59Z</time>
      </trkpt>
      <trkpt lat="49.31141" lon="-0.0181">
        <ele>114</ele>
        <time>2018-04-17T10:17:05Z</time>
      </trkpt>
      <trkpt lat="49.31145" lon="-0.018">
        <ele>114</ele>
        <time>2018-04-17T10:17:11Z</time>
      </trkpt>
      <trkpt lat="49.31149" lon="-0.01791">
        <ele>114</ele>
        <time>2018-04-17T10:17:17Z</time>
      </trkpt>
      <trkpt lat="49.31155" lon="-0.01781">
        <ele>114</ele>
        <time>2018-04-17T10:17:23Z</time>
      </trkpt>
      <trkpt lat="49.31159" lon="-0.0177">
        <ele>114</ele>
        <time>2018-04-17T10:17:30Z</time>
      </trkpt>
      <trkpt lat="49.31163" lon="-0.01762">
        <ele>114</ele>
        <time>2018-04-17T10:17:35Z</time>
      </trkpt>
      <trkpt lat="49.31169" lon="-0.01754">
        <ele>114</ele>
        <time>2018-04-17T10:17:42Z</time>
      </trkpt>
      <trkpt lat="49.31175" lon="-0.01746">
        <ele>113</ele>
        <time>2018-04-17T10:17:48Z</time>
      </trkpt>
      <trkpt lat="49.31179" lon="-0.01737">
        <ele>113</ele>
        <time>2018-04-17T10:17:55Z</time>
      </trkpt>
      <trkpt lat="49.31185" lon="-0.01728">
        <ele>112</ele>
        <time>2018-04-17T10:18:01Z</time>
      </trkpt>
      <trkpt lat="49.3119" lon="-0.01719">
        <ele>112</ele>
        <time>2018-04-17T10:18:07Z</time>
      </trkpt>
      <trkpt lat="49.31194" lon="-0.01709">
        <ele>112</ele>
        <time>2018-04-17T10:18:14Z</time>
      </trkpt>
      <trkpt lat="49.312" lon="-0.017">
        <ele>112</ele>
        <time>2018-04-17T10:18:19Z</time>
      </trkpt>
      <trkpt lat="49.31203" lon="-0.01695">
        <ele>112</ele>
        <time>2018-04-17T10:18:26Z</time>
      </trkpt>
      <trkpt lat="49.3121" lon="-0.01688">
        <ele>112</ele>
        <time>2018-04-17T10:18:32Z</time>
      </trkpt>
      <trkpt lat="49.31216" lon="-0.01678">
        <ele>112</ele>
        <time>2018-04-17T10:18:37Z</time>
      </trkpt>
      <trkpt lat="49.31221" lon="-0.01672">
        <ele>112</ele>
        <time>2018-04-17T10:18:44Z</time>
      </trkpt>
      <trkpt lat="49.31224" lon="-0.01669">
        <ele>112</ele>
        <time>2018-04-17T10:18:51Z</time>
      </trkpt>
      <trkpt lat="49.31229" lon="-0.01661">
        <ele>109</ele>
        <time>2018-04-17T10:18:56Z</time>
      </trkpt>
      <trkpt lat="49.31236" lon="-0.01653">
        <ele>109</ele>
        <time>2018-04-17T10:19:01Z</time>
      </trkpt>
      <trkpt lat="49.31244" lon="-0.01647">
        <ele>109</ele>
        <time>2018-04-17T10:19:07Z</time>
      </trkpt>
      <trkpt lat="49.31252" lon="-0.01643">
        <ele>110</ele>
        <time>2018-04-17T10:19:13Z</time>
      </trkpt>
      <trkpt lat="49.31259" lon="-0.01638">
        <ele>110</ele>
        <time>2018-04-17T10:19:18Z</time>
      </trkpt>
      <trkpt lat="49.31267" lon="-0.01634">
        <ele>109</ele>
        <time>2018-04-17T10:19:24Z</time>
      </trkpt>
      <trkpt lat="49.31273" lon="-0.01627">
        <ele>109</ele>
        <time>2018-04-17T10:19:31Z</time>
      </trkpt>
      <trkpt lat="49.31276" lon="-0.01622">
        <ele>109</ele>
        <time>2018-04-17T10:19:38Z</time>
      </trkpt>
      <trkpt lat="49.31283" lon="-0.01615">
        <ele>109</ele>
        <time>2018-04-17T10:19:44Z</time>
      </trkpt>
      <trkpt lat="49.3129" lon="-0.0161">
        <ele>108</ele>
        <time>2018-04-17T10:19:50Z</time>
      </trkpt>
      <trkpt lat="49.31296" lon="-0.01604">
        <ele>108</ele>
        <time>2018-04-17T10:19:55Z</time>
      </trkpt>
      <trkpt lat="49.31303" lon="-0.01598">
        <ele>108</ele>
        <time>2018-04-17T10:20:00Z</time>
      </trkpt>
      <trkpt lat="49.3131" lon="-0.01591">
        <ele>108</ele>
        <time>2018-04-17T10:20:05Z</time>
      </trkpt>
      <trkpt lat="49.31315" lon="-0.01585">
        <ele>107</ele>
        <time>2018-04-17T10:20:10Z</time>
      </trkpt>
      <trkpt lat="49.31322" lon="-0.0158">
        <ele>105</ele>
        <time>2018-04-17T10:20:15Z</time>
      </trkpt>
      <trkpt lat="49.31329" lon="-0.01573">
        <ele>105</ele>
        <time>2018-04-17T10:20:21Z</time>
      </trkpt>
      <trkpt lat="49.31335" lon="-0.0157">
        <ele>104</ele>
        <time>2018-04-17T10:20:28Z</time>
      </trkpt>
      <trkpt lat="49.31341" lon="-0.01566">
        <ele>104</ele>
        <time>2018-04-17T10:20:35Z</time>
      </trkpt>
      <trkpt lat="49.31349" lon="-0.01565">
        <ele>103</ele>
        <time>2018-04-17T10:20:42Z</time>
      </trkpt>
      <trkpt lat="49.31356" lon="-0.01561">
        <ele>103</ele>
        <time>2018-04-17T10:20:48Z</time>
      </trkpt>
      <trkpt lat="49.31363" lon="-0.01559">
        <ele>102</ele>
        <time>2018-04-17T10:20:53Z</time>
      </trkpt>
      <trkpt lat="49.3137" lon="-0.01555">
        <ele>102</ele>
        <time>2018-04-17T10:20:57Z</time>
      </trkpt>
      <trkpt lat="49.31377" lon="-0.0155">
        <ele>102</ele>
        <time>2018-04-17T10:21:02Z</time>
      </trkpt>
      <trkpt lat="49.31385" lon="-0.01548">
        <ele>102</ele>
        <time>2018-04-17T10:21:08Z</time>
      </trkpt>
      <trkpt lat="49.3139" lon="-0.01548">
        <ele>102</ele>
        <time>2018-04-17T10:21:15Z</time>
      </trkpt>
      <trkpt lat="49.31398" lon="-0.01548">
        <ele>101</ele>
        <time>2018-04-17T10:21:20Z</time>
      </trkpt>
      <trkpt lat="49.31405" lon="-0.01548">
        <ele>101</ele>
        <time>2018-04-17T10:21:26Z</time>
      </trkpt>
      <trkpt lat="49.31412" lon="-0.01548">
        <ele>101</ele>
        <time>2018-04-17T10:21:31Z</time>
      </trkpt>
      <trkpt lat="49.3142" lon="-0.01548">
        <ele>98</ele>
        <time>2018-04-17T10:21:38Z</time>
      </trkpt>
      <trkpt lat="49.31427" lon="-0.01546">
        <ele>98</ele>
        <time>2018-04-17T10:21:45Z</time>
      </trkpt>
      <trkpt lat="49.31435" lon="-0.01544">
        <ele>98</ele>
        <time>2018-04-17T10:21:50Z</time>
      </trkpt>
      <trkpt lat="49.31442" lon="-0.01544">
        <ele>98</ele>
        <time>2018-04-17T10:21:56Z</time>
      </trkpt>
      <trkpt lat="49.31449" lon="-0.01539">
        <ele>98</ele>
        <time>2018-04-17T10:22:03Z</time>
      </trkpt>
      <trkpt lat="49.31455" lon="-0.01533">
        <ele>97</ele>
        <time>2018-04-17T10:22:10Z</time>
      </trkpt>
      <trkpt lat="49.31462" lon="-0.01528">
        <ele>97</ele>
        <time>2018-04-17T10:22:16Z</time>
      </trkpt>
      <trkpt lat="49.3147" lon="-0.01522">
        <ele>97</ele>
        <time>2018-04-17T10:22:21Z</time>
      </trkpt>
      <trkpt lat="49.31478" lon="-0.0152">
        <ele>97</ele>
        <time>2018-04-17T10:22:25Z</time>
      </trkpt>
      <trkpt lat="49.31485" lon="-0.01516">
        <ele>96</ele>
        <time>2018-04-17T10:22:30Z</time>
      </trkpt>
      <trkpt lat="49.31492" lon="-0.01513">
        <ele>96</ele>
        <time>2018-04-17T10:22:37Z</time>
      </trkpt>
      <trkpt lat="49.31497" lon="-0.01506">
        <ele>95</ele>
        <time>2018-04-17T10:22:44Z</time>
      </trkpt>
      <trkpt lat="49.31504" lon="-0.015">
        <ele>94</ele>
        <time>2018-04-17T10:22:50Z</time>
      </trkpt>
      <trkpt lat="49.31511" lon="-0.01495">
        <ele>93</ele>
        <time>2018-04-17T10:22:56Z</time>
      </trkpt>
      <trkpt lat="49.31518" lon="-0.01489">
        <ele>92</ele>
        <time>2018-04-17T10:23:02Z</time>
      </trkpt>
      <trkpt lat="49.31524" lon="-0.01482">
        <ele>91</ele>
        <time>2018-04-17T10:23:08Z</time>
      </trkpt>
      <trkpt lat="49.31529" lon="-0.01473">
        <ele>90</ele>
        <time>2018-04-17T10:23:15Z</time>
      </trkpt>
      <trkpt lat="49.31536" lon="-0.01467">
        <ele>90</ele>
        <time>2018-04-17T10:23:21Z</time>
      </trkpt>
      <trkpt lat="49.31541" lon="-0.01467">
        <ele>90</ele>
        <time>2018-04-17T10:23:28Z</time>
      </trkpt>
      <trkpt lat="49.31548" lon="-0.01466">
        <ele>89</ele>
        <time>2018-04-17T10:23:35Z</time>
      </trkpt>
      <trkpt lat="49.31554" lon="-0.0146">
        <ele>89</ele>
        <time>2018-04-17T10:23:39Z</time>
      </trkpt>
      <trkpt lat="49.31561" lon="-0.01454">
        <ele>88</ele>
        <time>2018-04-17T10:23:44Z</time>
      </trkpt>
      <trkpt lat="49.31567" lon="-0.01447">
        <ele>88</ele>
        <time>2018-04-17T10:23:50Z</time>
      </trkpt>
      <trkpt lat="49.31571" lon="-0.01443">
        <ele>88</ele>
        <time>2018-04-17T10:23:57Z</time>
      </trkpt>
      <trkpt lat="49.31578" lon="-0.01437">
        <ele>88</ele>
        <time>2018-04-17T10:24:02Z</time>
      </trkpt>
      <trkpt lat="49.31585" lon="-0.01428">
        <ele>85</ele>
        <time>2018-04-17T10:24:07Z</time>
      </trkpt>
      <trkpt lat="49.31591" lon="-0.01424">
        <ele>85</ele>
        <time>2018-04-17T10:24:13Z</time>
      </trkpt>
      <trkpt lat="49.31598" lon="-0.01419">
        <ele>84</ele>
        <time>2018-04-17T10:24:20Z</time>
      </trkpt>
      <trkpt lat="49.31607" lon="-0.01417">
        <ele>85</ele>
        <time>2018-04-17T10:24:26Z</time>
      </trkpt>
      <trkpt lat="49.31615" lon="-0.01414">
        <ele>85</ele>
        <time>2018-04-17T10:24:32Z</time>
      </trkpt>
      <trkpt lat="49.31622" lon="-0.01411">
        <ele>85</ele>
        <time>2018-04-17T10:24:38Z</time>
      </trkpt>
      <trkpt lat="49.3163" lon="-0.01408">
        <ele>84</ele>
        <time>2018-04-17T10:24:45Z</time>
      </trkpt>
      <trkpt lat="49.31637" lon="-0.01403">
        <ele>84</ele>
        <time>2018-04-17T10:24:51Z</time>
      </trkpt>
      <trkpt lat="49.31644" lon="-0.01401">
        <ele>84</ele>
        <time>2018-04-17T10:24:58Z</time>
      </trkpt>
      <trkpt lat="49.31651" lon="-0.01399">
        <ele>84</ele>
        <time>2018-04-17T10:25:05Z</time>
      </trkpt>
      <trkpt lat="49.31659" lon="-0.01398">
        <ele>83</ele>
        <time>2018-04-17T10:25:12Z</time>
      </trkpt>
      <trkpt lat="49.31666" lon="-0.01395">
        <ele>83</ele>
        <time>2018-04-17T10:25:18Z</time>
      </trkpt>
      <trkpt lat="49.31675" lon="-0.01395">
        <ele>82</ele>
        <time>2018-04-17T10:25:23Z</time>
      </trkpt>
      <trkpt lat="49.31682" lon="-0.01391">
        <ele>82</ele>
        <time>2018-04-17T10:25:29Z</time>
      </trkpt>
      <trkpt lat="49.3169" lon="-0.01388">
        <ele>82</ele>
        <time>2018-04-17T10:25:34Z</time>
      </trkpt>
      <trkpt lat="49.31697" lon="-0.01382">
        <ele>82</ele>
        <time>2018-04-17T10:25:40Z</time>
      </trkpt>
      <trkpt lat="49.31704" lon="-0.01378">
        <ele>82</ele>
        <time>2018-04-17T10:25:46Z</time>
      </trkpt>
      <trkpt lat="49.31711" lon="-0.01373">
        <ele>82</ele>
        <time>2018-04-17T10:25:52Z</time>
      </trkpt>
      <trkpt lat="49.31714" lon="-0.01363">
        <ele>82</ele>
        <time>2018-04-17T10:25:59Z</time>
      </trkpt>
      <trkpt lat="49.31718" lon="-0.01352">
        <ele>83</ele>
        <time>2018-04-17T10:26:04Z</time>
      </trkpt>
      <trkpt lat="49.31726" lon="-0.0135">
        <ele>83</ele>
        <time>2018-04-17T10:26:11Z</time>
      </trkpt>
      <trkpt lat="49.31729" lon="-0.01354">
        <ele>83</ele>
        <time>2018-04-17T10:26:18Z</time>
      </trkpt>
      <trkpt lat="49.31736" lon="-0.01359">
        <ele>82</ele>
        <time>2018-04-17T10:26:23Z</time>
      </trkpt>
      <trkpt lat="49.31743" lon="-0.01356">
        <ele>82</ele>
        <time>2018-04-17T10:26:30Z</time>
      </trkpt>
      <trkpt lat="49.31751" lon="-0.01352">
        <ele>80</ele>
        <time>2018-04-17T10:26:36Z</time>
      </trkpt>
      <trkpt lat="49.31759" lon="-0.0135">
        <ele>80</ele>
        <time>2018-04-17T10:26:41Z</time>
      </trkpt>
      <trkpt lat="49.31766" lon="-0.01347">
        <ele>80</ele>
        <time>2018-04-17T10:26:47Z</time>
      </trkpt>
      <trkpt lat="49.3177" lon="-0.01346">
        <ele>79</ele>
        <time>2018-04-17T10:26:54Z</time>
      </trkpt>
      <trkpt lat="49.31776" lon="-0.01343">
        <ele>79</ele>
        <time>2018-04-17T10:27:01Z</time>
      </trkpt>
      <trkpt lat="49.31781" lon="-0.01344">
        <ele>78</ele>
        <time>2018-04-17T10:27:08Z</time>
      </trkpt>
      <trkpt lat="49.3179" lon="-0.01341">
        <ele>78</ele>
        <time>2018-04-17T10:27:14Z</time>
      </trkpt>
      <trkpt lat="49.31796" lon="-0.01335">
        <ele>77</ele>
        <time>2018-04-17T10:27:20Z</time>
      </trkpt>
      <trkpt lat="49.31803" lon="-0.01327">
        <ele>78</ele>
        <time>2018-04-17T10:27:26Z</time>
      </trkpt>
      <trkpt lat="49.31808" lon="-0.0132">
        <ele>78</ele>
        <time>2018-04-17T10:27:31Z</time>
      </trkpt>
      <trkpt lat="49.31815" lon="-0.01313">
        <ele>78</ele>
        <time>2018-04-17T10:27:37Z</time>
      </trkpt>
      <trkpt lat="49.31822" lon="-0.01307">
        <ele>78</ele>
        <time>2018-04-17T10:27:44Z</time>
      </trkpt>
      <trkpt lat="49.31822" lon="-0.01299">
        <ele>78</ele>
        <time>2018-04-17T10:27:51Z</time>
      </trkpt>
      <trkpt lat="49.31825" lon="-0.01286">
        <ele>79</ele>
        <time>2018-04-17T10:27:57Z</time>
      </trkpt>
      <trkpt lat="49.31829" lon="-0.01274">
        <ele>79</ele>
        <time>2018-04-17T10:28:02Z</time>
      </trkpt>
      <trkpt lat="49.31832" lon="-0.01263">
        <ele>79</ele>
        <time>2018-04-17T10:28:08Z</time>
      </trkpt>
      <trkpt lat="49.31832" lon="-0.01252">
        <ele>78</ele>
        <time>2018-04-17T10:28:14Z</time>
      </trkpt>
      <trkpt lat="49.31835" lon="-0.01239">
        <ele>75</ele>
        <time>2018-04-17T10:28:20Z</time>
      </trkpt>
      <trkpt lat="49.31837" lon="-0.01226">
        <ele>74</ele>
        <time>2018-04-17T10:28:26Z</time>
      </trkpt>
      <trkpt lat="49.31837" lon="-0.01215">
        <ele>73</ele>
        <time>2018-04-17T10:28:31Z</time>
      </trkpt>
      <trkpt lat="49.31835" lon="-0.01203">
        <ele>73</ele>
        <time>2018-04-17T10:28:38Z</time>
      </trkpt>
      <trkpt lat="49.31837" lon="-0.01194">
        <ele>73</ele>
        <time>2018-04-17T10:28:45Z</time>
      </trkpt>
      <trkpt lat="49.31839" lon="-0.01183">
        <ele>73</ele>
        <time>2018-04-17T10:28:50Z</time>
      </trkpt>
      <trkpt lat="49.31841" lon="-0.01171">
        <ele>74</ele>
        <time>2018-04-17T10:28:56Z</time>
      </trkpt>
      <trkpt lat="49.31847" lon="-0.01164">
        <ele>72</ele>
        <time>2018-04-17T10:29:02Z</time>
      </trkpt>
      <trkpt lat="49.31853" lon="-0.01155">
        <ele>71</ele>
        <time>2018-04-17T10:29:09Z</time>
      </trkpt>
      <trkpt lat="49.31858" lon="-0.01148">
        <ele>70</ele>
        <time>2018-04-17T10:29:14Z</time>
      </trkpt>
      <trkpt lat="49.31862" lon="-0.01137">
        <ele>69</ele>
        <time>2018-04-17T10:29:20Z</time>
      </trkpt>
      <trkpt lat="49.31866" lon="-0.01129">
        <ele>68</ele>
        <time>2018-04-17T10:29:27Z</time>
      </trkpt>
      <trkpt lat="49.31868" lon="-0.01116">
        <ele>68</ele>
        <time>2018-04-17T10:29:34Z</time>
      </trkpt>
      <trkpt lat="49.31868" lon="-0.01105">
        <ele>67</ele>
        <time>2018-04-17T10:29:41Z</time>
      </trkpt>
      <trkpt lat="49.31868" lon="-0.01094">
        <ele>67</ele>
        <time>2018-04-17T10:29:47Z</time>
      </trkpt>
      <trkpt lat="49.31866" lon="-0.01083">
        <ele>64</ele>
        <time>2018-04-17T10:29:54Z</time>
      </trkpt>
      <trkpt lat="49.31863" lon="-0.01074">
        <ele>64</ele>
        <time>2018-04-17T10:30:00Z</time>
      </trkpt>
      <trkpt lat="49.31859" lon="-0.01065">
        <ele>64</ele>
        <time>2018-04-17T10:30:07Z</time>
      </trkpt>
      <trkpt lat="49.31857" lon="-0.01053">
        <ele>64</ele>
        <time>2018-04-17T10:30:12Z</time>
      </trkpt>
      <trkpt lat="49.31858" lon="-0.0104">
        <ele>63</ele>
        <time>2018-04-17T10:30:18Z</time>
      </trkpt>
      <trkpt lat="49.31858" lon="-0.0103">
        <ele>63</ele>
        <time>2018-04-17T10:30:23Z</time>
      </trkpt>
      <trkpt lat="49.31862" lon="-0.01018">
        <ele>63</ele>
        <time>2018-04-17T10:30:28Z</time>
      </trkpt>
      <trkpt lat="49.31864" lon="-0.01007">
        <ele>62</ele>
        <time>2018-04-17T10:30:34Z</time>
      </trkpt>
      <trkpt lat="49.31867" lon="-0.01006">
        <ele>62</ele>
        <time>2018-04-17T10:30:41Z</time>
      </trkpt>
      <trkpt lat="49.3187" lon="-0.01">
        <ele>58</ele>
        <time>2018-04-17T10:30:48Z</time>
      </trkpt>
      <trkpt lat="49.31873" lon="-0.00994">
        <ele>58</ele>
        <time>2018-04-17T10:30:55Z</time>
      </trkpt>
      <trkpt lat="49.31878" lon="-0.00986">
        <ele>57</ele>
        <time>2018-04-17T10:31:00Z</time>
      </trkpt>
      <trkpt lat="49.31885" lon="-0.0098">
        <ele>57</ele>
        <time>2018-04-17T10:31:07Z</time>
      </trkpt>
      <trkpt lat="49.31894" lon="-0.00979">
        <ele>56</ele>
        <time>2018-04-17T10:31:12Z</time>
      </trkpt>
      <trkpt lat="49.31901" lon="-0.00977">
        <ele>56</ele>
        <time>2018-04-17T10:31:17Z</time>
      </trkpt>
      <trkpt lat="49.31907" lon="-0.00975">
        <ele>56</ele>
        <time>2018-04-17T10:31:24Z</time>
      </trkpt>
      <trkpt lat="49.31915" lon="-0.00969">
        <ele>56</ele>
        <time>2018-04-17T10:31:31Z</time>
      </trkpt>
      <trkpt lat="49.31922" lon="-0.00966">
        <ele>53</ele>
        <time>2018-04-17T10:31:36Z</time>
      </trkpt>
      <trkpt lat="49.31929" lon="-0.00961">
        <ele>52</ele>
        <time>2018-04-17T10:31:42Z</time>
      </trkpt>
      <trkpt lat="49.31934" lon="-0.00951">
        <ele>52</ele>
        <time>2018-04-17T10:31:49Z</time>
      </trkpt>
      <trkpt lat="49.31936" lon="-0.00942">
        <ele>51</ele>
        <time>2018-04-17T10:31:56Z</time>
      </trkpt>
      <trkpt lat="49.3194" lon="-0.00932">
        <ele>51</ele>
        <time>2018-04-17T10:32:03Z</time>
      </trkpt>
      <trkpt lat="49.31947" lon="-0.00926">
        <ele>51</ele>
        <time>2018-04-17T10:32:08Z</time>
      </trkpt>
      <trkpt lat="49.31953" lon="-0.0092">
        <ele>51</ele>
        <time>2018-04-17T10:32:14Z</time>
      </trkpt>
      <trkpt lat="49.3196" lon="-0.0092">
        <ele>51</ele>
        <time>2018-04-17T10:32:21Z</time>
      </trkpt>
      <trkpt lat="49.31964" lon="-0.00914">
        <ele>47</ele>
        <time>2018-04-17T10:32:28Z</time>
      </trkpt>
      <trkpt lat="49.31971" lon="-0.00908">
        <ele>47</ele>
        <time>2018-04-17T10:32:34Z</time>
      </trkpt>
      <trkpt lat="49.31978" lon="-0.00902">
        <ele>47</ele>
        <time>2018-04-17T10:32:41Z</time>
      </trkpt>
      <trkpt lat="49.31984" lon="-0.00895">
        <ele>47</ele>
        <time>2018-04-17T10:32:47Z</time>
      </trkpt>
      <trkpt lat="49.31989" lon="-0.00889">
        <ele>47</ele>
        <time>2018-04-17T10:32:54Z</time>
      </trkpt>
      <trkpt lat="49.31991" lon="-0.00879">
        <ele>46</ele>
        <time>2018-04-17T10:33:01Z</time>
      </trkpt>
      <trkpt lat="49.31995" lon="-0.00868">
        <ele>46</ele>
        <time>2018-04-17T10:33:06Z</time>
      </trkpt>
      <trkpt lat="49.31997" lon="-0.00857">
        <ele>45</ele>
        <time>2018-04-17T10:33:13Z</time>
      </trkpt>
      <trkpt lat="49.32" lon="-0.00847">
        <ele>44</ele>
        <time>2018-04-17T10:33:18Z</time>
      </trkpt>
      <trkpt lat="49.32002" lon="-0.00838">
        <ele>42</ele>
        <time>2018-04-17T10:33:25Z</time>
      </trkpt>
      <trkpt lat="49.32006" lon="-0.00831">
        <ele>40</ele>
        <time>2018-04-17T10:33:32Z</time>
      </trkpt>
      <trkpt lat="49.3201" lon="-0.00821">
        <ele>38</ele>
        <time>2018-04-17T10:33:39Z</time>
      </trkpt>
      <trkpt lat="49.3201" lon="-0.00808">
        <ele>37</ele>
        <time>2018-04-17T10:33:46Z</time>
      </trkpt>
      <trkpt lat="49.32011" lon="-0.00795">
        <ele>36</ele>
        <time>2018-04-17T10:33:53Z</time>
      </trkpt>
      <trkpt lat="49.32014" lon="-0.00784">
        <ele>35</ele>
        <time>2018-04-17T10:34:00Z</time>
      </trkpt>
      <trkpt lat="49.32018" lon="-0.00774">
        <ele>34</ele>
        <time>2018-04-17T10:34:07Z</time>
      </trkpt>
      <trkpt lat="49.32018" lon="-0.00767">
        <ele>34</ele>
        <time>2018-04-17T10:34:14Z</time>
      </trkpt>
      <trkpt lat="49.32019" lon="-0.0076">
        <ele>34</ele>
        <time>2018-04-17T10:34:21Z</time>
      </trkpt>
      <trkpt lat="49.32023" lon="-0.00753">
        <ele>34</ele>
        <time>2018-04-17T10:34:28Z</time>
      </trkpt>
      <trkpt lat="49.32025" lon="-0.0075">
        <ele>32</ele>
        <time>2018-04-17T10:34:35Z</time>
      </trkpt>
      <trkpt lat="49.32026" lon="-0.00744">
        <ele>29</ele>
        <time>2018-04-17T10:34:42Z</time>
      </trkpt>
      <trkpt lat="49.32027" lon="-0.00738">
        <ele>29</ele>
        <time>2018-04-17T10:34:49Z</time>
      </trkpt>
      <trkpt lat="49.3203" lon="-0.00726">
        <ele>28</ele>
        <time>2018-04-17T10:34:56Z</time>
      </trkpt>
      <trkpt lat="49.32036" lon="-0.00717">
        <ele>27</ele>
        <time>2018-04-17T10:35:02Z</time>
      </trkpt>
      <trkpt lat="49.32036" lon="-0.00706">
        <ele>27</ele>
        <time>2018-04-17T10:35:09Z</time>
      </trkpt>
      <trkpt lat="49.32033" lon="-0.007">
        <ele>27</ele>
        <time>2018-04-17T10:35:16Z</time>
      </trkpt>
      <trkpt lat="49.32034" lon="-0.00696">
        <ele>27</ele>
        <time>2018-04-17T10:35:23Z</time>
      </trkpt>
      <trkpt lat="49.32034" lon="-0.00684">
        <ele>26</ele>
        <time>2018-04-17T10:35:30Z</time>
      </trkpt>
      <trkpt lat="49.32036" lon="-0.00675">
        <ele>26</ele>
        <time>2018-04-17T10:35:37Z</time>
      </trkpt>
      <trkpt lat="49.32042" lon="-0.00673">
        <ele>25</ele>
        <time>2018-04-17T10:35:44Z</time>
      </trkpt>
      <trkpt lat="49.32048" lon="-0.00665">
        <ele>22</ele>
        <time>2018-04-17T10:35:51Z</time>
      </trkpt>
      <trkpt lat="49.32051" lon="-0.00656">
        <ele>22</ele>
        <time>2018-04-17T10:35:58Z</time>
      </trkpt>
      <trkpt lat="49.32055" lon="-0.00645">
        <ele>22</ele>
        <time>2018-04-17T10:36:03Z</time>
      </trkpt>
      <trkpt lat="49.32057" lon="-0.00634">
        <ele>22</ele>
        <time>2018-04-17T10:36:08Z</time>
      </trkpt>
      <trkpt lat="49.32056" lon="-0.00624">
        <ele>21</ele>
        <time>2018-04-17T10:36:14Z</time>
      </trkpt>
      <trkpt lat="49.32057" lon="-0.00616">
        <ele>21</ele>
        <time>2018-04-17T10:36:21Z</time>
      </trkpt>
      <trkpt lat="49.32061" lon="-0.00611">
        <ele>21</ele>
        <time>2018-04-17T10:36:28Z</time>
      </trkpt>
      <trkpt lat="49.32064" lon="-0.00605">
        <ele>21</ele>
        <time>2018-04-17T10:36:35Z</time>
      </trkpt>
      <trkpt lat="49.32065" lon="-0.00602">
        <ele>21</ele>
        <time>2018-04-17T10:36:42Z</time>
      </trkpt>
      <trkpt lat="49.32069" lon="-0.00601">
        <ele>20</ele>
        <time>2018-04-17T10:36:51Z</time>
      </trkpt>
      <trkpt lat="49.32076" lon="-0.00595">
        <ele>20</ele>
        <time>2018-04-17T10:36:58Z</time>
      </trkpt>
      <trkpt lat="49.32084" lon="-0.00595">
        <ele>18</ele>
        <time>2018-04-17T10:37:03Z</time>
      </trkpt>
      <trkpt lat="49.32088" lon="-0.00595">
        <ele>18</ele>
        <time>2018-04-17T10:37:10Z</time>
      </trkpt>
      <trkpt lat="49.32094" lon="-0.00598">
        <ele>18</ele>
        <time>2018-04-17T10:37:17Z</time>
      </trkpt>
      <trkpt lat="49.32101" lon="-0.00592">
        <ele>18</ele>
        <time>2018-04-17T10:37:21Z</time>
      </trkpt>
      <trkpt lat="49.32107" lon="-0.00588">
        <ele>18</ele>
        <time>2018-04-17T10:37:27Z</time>
      </trkpt>
      <trkpt lat="49.32114" lon="-0.00583">
        <ele>18</ele>
        <time>2018-04-17T10:37:33Z</time>
      </trkpt>
      <trkpt lat="49.32122" lon="-0.0058">
        <ele>18</ele>
        <time>2018-04-17T10:37:37Z</time>
      </trkpt>
      <trkpt lat="49.32128" lon="-0.00575">
        <ele>18</ele>
        <time>2018-04-17T10:37:41Z</time>
      </trkpt>
      <trkpt lat="49.32135" lon="-0.00571">
        <ele>18</ele>
        <time>2018-04-17T10:37:47Z</time>
      </trkpt>
      <trkpt lat="49.32139" lon="-0.00569">
        <ele>18</ele>
        <time>2018-04-17T10:37:54Z</time>
      </trkpt>
      <trkpt lat="49.3214" lon="-0.00569">
        <ele>18</ele>
        <time>2018-04-17T10:38:01Z</time>
      </trkpt>
      <trkpt lat="49.32138" lon="-0.00558">
        <ele>18</ele>
        <time>2018-04-17T10:38:08Z</time>
      </trkpt>
      <trkpt lat="49.32137" lon="-0.00546">
        <ele>18</ele>
        <time>2018-04-17T10:38:14Z</time>
      </trkpt>
      <trkpt lat="49.32136" lon="-0.00534">
        <ele>18</ele>
        <time>2018-04-17T10:38:19Z</time>
      </trkpt>
      <trkpt lat="49.32131" lon="-0.00531">
        <ele>18</ele>
        <time>2018-04-17T10:38:26Z</time>
      </trkpt>
      <trkpt lat="49.32132" lon="-0.00526">
        <ele>18</ele>
        <time>2018-04-17T10:38:33Z</time>
      </trkpt>
      <trkpt lat="49.32131" lon="-0.00519">
        <ele>18</ele>
        <time>2018-04-17T10:38:40Z</time>
      </trkpt>
      <trkpt lat="49.32132" lon="-0.00516">
        <ele>18</ele>
        <time>2018-04-17T10:38:47Z</time>
      </trkpt>
      <trkpt lat="49.32132" lon="-0.00516">
        <ele>18</ele>
        <time>2018-04-17T10:38:50Z</time>
      </trkpt>
      <trkpt lat="49.32133" lon="-0.00516">
        <ele>18</ele>
        <time>2018-04-17T10:39:00Z</time>
      </trkpt>
      <trkpt lat="49.32133" lon="-0.00516">
        <ele>18</ele>
        <time>2018-04-17T10:39:01Z</time>
      </trkpt>
      <trkpt lat="49.3214" lon="-0.00507">
        <ele>17</ele>
        <time>2018-04-17T10:39:11Z</time>
      </trkpt>
      <trkpt lat="49.32146" lon="-0.00509">
        <ele>17</ele>
        <time>2018-04-17T10:39:18Z</time>
      </trkpt>
      <trkpt lat="49.32144" lon="-0.0052">
        <ele>17</ele>
        <time>2018-04-17T10:39:23Z</time>
      </trkpt>
      <trkpt lat="49.32145" lon="-0.00517">
        <ele>17</ele>
        <time>2018-04-17T10:39:30Z</time>
      </trkpt>
      <trkpt lat="49.32146" lon="-0.00518">
        <ele>17</ele>
        <time>2018-04-17T10:39:35Z</time>
      </trkpt>
      <trkpt lat="49.32148" lon="-0.00516">
        <ele>17</ele>
        <time>2018-04-17T10:39:43Z</time>
      </trkpt>
      <trkpt lat="49.32155" lon="-0.00514">
        <ele>17</ele>
        <time>2018-04-17T10:39:50Z</time>
      </trkpt>
      <trkpt lat="49.32162" lon="-0.00507">
        <ele>17</ele>
        <time>2018-04-17T10:39:57Z</time>
      </trkpt>
      <trkpt lat="49.32169" lon="-0.00498">
        <ele>16</ele>
        <time>2018-04-17T10:40:02Z</time>
      </trkpt>
      <trkpt lat="49.32177" lon="-0.00497">
        <ele>16</ele>
        <time>2018-04-17T10:40:08Z</time>
      </trkpt>
      <trkpt lat="49.32185" lon="-0.00497">
        <ele>15</ele>
        <time>2018-04-17T10:40:15Z</time>
      </trkpt>
      <trkpt lat="49.32188" lon="-0.00502">
        <ele>15</ele>
        <time>2018-04-17T10:40:22Z</time>
      </trkpt>
      <trkpt lat="49.32191" lon="-0.00498">
        <ele>15</ele>
        <time>2018-04-17T10:40:29Z</time>
      </trkpt>
      <trkpt lat="49.32191" lon="-0.00497">
        <ele>15</ele>
        <time>2018-04-17T10:40:35Z</time>
      </trkpt>
      <trkpt lat="49.32191" lon="-0.00498">
        <ele>15</ele>
        <time>2018-04-17T10:40:47Z</time>
      </trkpt>
      <trkpt lat="49.32191" lon="-0.00498">
        <ele>15</ele>
        <time>2018-04-17T10:40:48Z</time>
      </trkpt>
      <trkpt lat="49.32195" lon="-0.00504">
        <ele>15</ele>
        <time>2018-04-17T10:42:36Z</time>
      </trkpt>
      <trkpt lat="49.32201" lon="-0.00511">
        <ele>15</ele>
        <time>2018-04-17T10:42:42Z</time>
      </trkpt>
      <trkpt lat="49.32209" lon="-0.00517">
        <ele>15</ele>
        <time>2018-04-17T10:42:47Z</time>
      </trkpt>
      <trkpt lat="49.32212" lon="-0.00527">
        <ele>15</ele>
        <time>2018-04-17T10:42:54Z</time>
      </trkpt>
      <trkpt lat="49.32205" lon="-0.00533">
        <ele>15</ele>
        <time>2018-04-17T10:42:57Z</time>
      </trkpt>
      <trkpt lat="49.32199" lon="-0.0054">
        <ele>15</ele>
        <time>2018-04-17T10:43:00Z</time>
      </trkpt>
      <trkpt lat="49.32195" lon="-0.0055">
        <ele>15</ele>
        <time>2018-04-17T10:43:07Z</time>
      </trkpt>
      <trkpt lat="49.32197" lon="-0.00553">
        <ele>15</ele>
        <time>2018-04-17T10:43:14Z</time>
      </trkpt>
      <trkpt lat="49.32197" lon="-0.00553">
        <ele>15</ele>
        <time>2018-04-17T10:43:16Z</time>
      </trkpt>
      <trkpt lat="49.32198" lon="-0.00554">
        <ele>15</ele>
        <time>2018-04-17T10:44:01Z</time>
      </trkpt>
      <trkpt lat="49.32202" lon="-0.0056">
        <ele>15</ele>
        <time>2018-04-17T10:44:08Z</time>
      </trkpt>
      <trkpt lat="49.32206" lon="-0.00565">
        <ele>15</ele>
        <time>2018-04-17T10:44:15Z</time>
      </trkpt>
      <trkpt lat="49.32206" lon="-0.00566">
        <ele>15</ele>
        <time>2018-04-17T10:44:19Z</time>
      </trkpt>
      <trkpt lat="49.32207" lon="-0.00565">
        <ele>15</ele>
        <time>2018-04-17T10:44:28Z</time>
      </trkpt>
      <trkpt lat="49.32208" lon="-0.00556">
        <ele>15</ele>
        <time>2018-04-17T10:44:35Z</time>
      </trkpt>
      <trkpt lat="49.32209" lon="-0.00556">
        <ele>15</ele>
        <time>2018-04-17T10:44:42Z</time>
      </trkpt>
      <trkpt lat="49.32211" lon="-0.00552">
        <ele>15</ele>
        <time>2018-04-17T10:44:49Z</time>
      </trkpt>
      <trkpt lat="49.32212" lon="-0.00546">
        <ele>15</ele>
        <time>2018-04-17T10:44:56Z</time>
      </trkpt>
      <trkpt lat="49.32212" lon="-0.00547">
        <ele>15</ele>
        <time>2018-04-17T10:45:02Z</time>
      </trkpt>
      <trkpt lat="49.32213" lon="-0.00547">
        <ele>15</ele>
        <time>2018-04-17T10:45:13Z</time>
      </trkpt>
      <trkpt lat="49.32213" lon="-0.00546">
        <ele>15</ele>
        <time>2018-04-17T10:45:14Z</time>
      </trkpt>
      <trkpt lat="49.32213" lon="-0.00546">
        <ele>15</ele>
        <time>2018-04-17T10:45:23Z</time>
      </trkpt>
      <trkpt lat="49.32214" lon="-0.00545">
        <ele>15</ele>
        <time>2018-04-17T10:45:24Z</time>
      </trkpt>
      <trkpt lat="49.32213" lon="-0.00543">
        <ele>15</ele>
        <time>2018-04-17T10:45:32Z</time>
      </trkpt>
      <trkpt lat="49.32213" lon="-0.00543">
        <ele>15</ele>
        <time>2018-04-17T10:45:33Z</time>
      </trkpt>
      <trkpt lat="49.32213" lon="-0.00543">
        <ele>15</ele>
        <time>2018-04-17T10:45:41Z</time>
      </trkpt>
      <trkpt lat="49.32213" lon="-0.00543">
        <ele>15</ele>
        <time>2018-04-17T10:45:42Z</time>
      </trkpt>
      <trkpt lat="49.32209" lon="-0.00541">
        <ele>15</ele>
        <time>2018-04-17T10:45:52Z</time>
      </trkpt>
      <trkpt lat="49.32208" lon="-0.00547">
        <ele>15</ele>
        <time>2018-04-17T10:45:59Z</time>
      </trkpt>
      <trkpt lat="49.32202" lon="-0.00549">
        <ele>15</ele>
        <time>2018-04-17T10:46:06Z</time>
      </trkpt>
      <trkpt lat="49.32198" lon="-0.0055">
        <ele>15</ele>
        <time>2018-04-17T10:46:13Z</time>
      </trkpt>
      <trkpt lat="49.32194" lon="-0.00553">
        <ele>15</ele>
        <time>2018-04-17T10:46:20Z</time>
      </trkpt>
      <trkpt lat="49.32194" lon="-0.00553">
        <ele>15</ele>
        <time>2018-04-17T10:46:27Z</time>
      </trkpt>
      <trkpt lat="49.32194" lon="-0.00553">
        <ele>15</ele>
        <time>2018-04-17T10:46:30Z</time>
      </trkpt>
    </trkseg>
  </trk>
</gpx>